<?xml version="1.0" encoding="UTF-8" standalone="no" ?><gpx xmlns="http://www.topografix.com/GPX/1/1" xmlns:gpxx="http://www.garmin.com/xmlschemas/GpxExtensions/v3" xmlns:wptx1="http://www.garmin.com/xmlschemas/WaypointExtension/v1" xmlns:gpxtpx="http://www.garmin.com/xmlschemas/TrackPointExtension/v1" creator="GuideVTT.com" version="1.1" xmlns:xsi="http://www.w3.org/2001/XMLSchema-instance" xsi:schemaLocation="http://www.topografix.com/GPX/1/1 http://www.topografix.com/GPX/1/1/gpx.xsd http://www.garmin.com/xmlschemas/GpxExtensions/v3 http://www8.garmin.com/xmlschemas/GpxExtensionsv3.xsd http://www.garmin.com/xmlschemas/WaypointExtension/v1 http://www8.garmin.com/xmlschemas/WaypointExtensionv1.xsd http://www.garmin.com/xmlschemas/TrackPointExtension/v1 http://www.garmin.com/xmlschemas/TrackPointExtensionv1.xsd">
<metadata><link href="http://www.garmin.com"><text>Garmin International</text></link><time>2013-06-22T15:13:50Z</time></metadata>
<trk><name>2008-07-22.gpx</name><extensions><gpxx:TrackExtension><gpxx:DisplayColor>Cyan</gpxx:DisplayColor></gpxx:TrackExtension></extensions><trkseg>
<trkpt lat="46.22758781" lon="7.28058874"><ele></ele><time>2014-5-15T4:22:13Z</time></trkpt>
<trkpt lat="46.22762041" lon="7.28056736"><ele></ele><time>2014-5-15T4:22:16Z</time></trkpt>
<trkpt lat="46.22744137" lon="7.28041682"><ele></ele><time>2014-5-15T4:22:19Z</time></trkpt>
<trkpt lat="46.22731112" lon="7.28054599"><ele></ele><time>2014-5-15T4:22:22Z</time></trkpt>
<trkpt lat="46.22733559" lon="7.28121025"><ele></ele><time>2014-5-15T4:22:25Z</time></trkpt>
<trkpt lat="46.22741690" lon="7.28153279"><ele></ele><time>2014-5-15T4:22:28Z</time></trkpt>
<trkpt lat="46.22748203" lon="7.28149004"><ele></ele><time>2014-5-15T4:22:31Z</time></trkpt>
<trkpt lat="46.22767732" lon="7.28069552"><ele></ele><time>2014-5-15T4:22:34Z</time></trkpt>
<trkpt lat="46.22774245" lon="7.28024491"><ele></ele><time>2014-5-15T4:22:37Z</time></trkpt>
<trkpt lat="46.22758781" lon="7.27977293"><ele></ele><time>2014-5-15T4:22:40Z</time></trkpt>
<trkpt lat="46.22772619" lon="7.27927957"><ele></ele><time>2014-5-15T4:22:43Z</time></trkpt>
<trkpt lat="46.22797849" lon="7.27863567"><ele></ele><time>2014-5-15T4:22:46Z</time></trkpt>
<trkpt lat="46.22799475" lon="7.27833551"><ele></ele><time>2014-5-15T4:22:49Z</time></trkpt>
<trkpt lat="46.22779132" lon="7.27801306"><ele></ele><time>2014-5-15T4:22:52Z</time></trkpt>
<trkpt lat="46.22765293" lon="7.27754108"><ele></ele><time>2014-5-15T4:22:55Z</time></trkpt>
<trkpt lat="46.22738438" lon="7.27691947"><ele></ele><time>2014-5-15T4:22:58Z</time></trkpt>
<trkpt lat="46.22671709" lon="7.27595313"><ele></ele><time>2014-5-15T4:23:1Z</time></trkpt>
<trkpt lat="46.22649732" lon="7.27520236"><ele></ele><time>2014-5-15T4:23:4Z</time></trkpt>
<trkpt lat="46.22626137" lon="7.27485954"><ele></ele><time>2014-5-15T4:23:7Z</time></trkpt>
<trkpt lat="46.22596021" lon="7.27425839"><ele></ele><time>2014-5-15T4:23:10Z</time></trkpt>
<trkpt lat="46.22587069" lon="7.27372228"><ele></ele><time>2014-5-15T4:23:13Z</time></trkpt>
<trkpt lat="46.22573239" lon="7.27325030"><ele></ele><time>2014-5-15T4:23:16Z</time></trkpt>
<trkpt lat="46.22569987" lon="7.27249852"><ele></ele><time>2014-5-15T4:23:19Z</time></trkpt>
<trkpt lat="46.22574865" lon="7.27174784"><ele></ele><time>2014-5-15T4:23:22Z</time></trkpt>
<trkpt lat="46.22587069" lon="7.27168372"><ele></ele><time>2014-5-15T4:23:25Z</time></trkpt>
<trkpt lat="46.22624511" lon="7.27196242"><ele></ele><time>2014-5-15T4:23:28Z</time></trkpt>
<trkpt lat="46.22658684" lon="7.27243440"><ele></ele><time>2014-5-15T4:23:31Z</time></trkpt>
<trkpt lat="46.22682287" lon="7.27258503"><ele></ele><time>2014-5-15T4:23:34Z</time></trkpt>
<trkpt lat="46.22679848" lon="7.27245578"><ele></ele><time>2014-5-15T4:23:37Z</time></trkpt>
<trkpt lat="46.22649732" lon="7.27181188"><ele></ele><time>2014-5-15T4:23:40Z</time></trkpt>
<trkpt lat="46.22617998" lon="7.27129715"><ele></ele><time>2014-5-15T4:23:43Z</time></trkpt>
<trkpt lat="46.22591956" lon="7.27082516"><ele></ele><time>2014-5-15T4:23:46Z</time></trkpt>
<trkpt lat="46.22566726" lon="7.27015989"><ele></ele><time>2014-5-15T4:23:49Z</time></trkpt>
<trkpt lat="46.22527666" lon="7.26932270"><ele></ele><time>2014-5-15T4:23:52Z</time></trkpt>
<trkpt lat="46.22491046" lon="7.26835728"><ele></ele><time>2014-5-15T4:23:55Z</time></trkpt>
<trkpt lat="46.22452799" lon="7.26745597"><ele></ele><time>2014-5-15T4:23:58Z</time></trkpt>
<trkpt lat="46.22429196" lon="7.26717727"><ele></ele><time>2014-5-15T4:24:1Z</time></trkpt>
<trkpt lat="46.22409666" lon="7.26668391"><ele></ele><time>2014-5-15T4:24:4Z</time></trkpt>
<trkpt lat="46.22403153" lon="7.26629734"><ele></ele><time>2014-5-15T4:24:7Z</time></trkpt>
<trkpt lat="46.22416170" lon="7.26629734"><ele></ele><time>2014-5-15T4:24:10Z</time></trkpt>
<trkpt lat="46.22465003" lon="7.26651200"><ele></ele><time>2014-5-15T4:24:13Z</time></trkpt>
<trkpt lat="46.22484533" lon="7.26653337"><ele></ele><time>2014-5-15T4:24:16Z</time></trkpt>
<trkpt lat="46.22491046" lon="7.26616918"><ele></ele><time>2014-5-15T4:24:19Z</time></trkpt>
<trkpt lat="46.22501624" lon="7.26593315"><ele></ele><time>2014-5-15T4:24:22Z</time></trkpt>
<trkpt lat="46.22501624" lon="7.26569720"><ele></ele><time>2014-5-15T4:24:25Z</time></trkpt>
<trkpt lat="46.22486972" lon="7.26550391"><ele></ele><time>2014-5-15T4:24:28Z</time></trkpt>
<trkpt lat="46.22480468" lon="7.26546116"><ele></ele><time>2014-5-15T4:24:31Z</time></trkpt>
<trkpt lat="46.22471516" lon="7.26535337"><ele></ele><time>2014-5-15T4:24:34Z</time></trkpt>
<trkpt lat="46.22471516" lon="7.26531062"><ele></ele><time>2014-5-15T4:24:37Z</time></trkpt>
<trkpt lat="46.22499998" lon="7.26524650"><ele></ele><time>2014-5-15T4:24:40Z</time></trkpt>
<trkpt lat="46.22523593" lon="7.26475214"><ele></ele><time>2014-5-15T4:24:43Z</time></trkpt>
<trkpt lat="46.22521154" lon="7.26460260"><ele></ele><time>2014-5-15T4:24:46Z</time></trkpt>
<trkpt lat="46.22529292" lon="7.26438794"><ele></ele><time>2014-5-15T4:24:49Z</time></trkpt>
<trkpt lat="46.22518715" lon="7.26408787"><ele></ele><time>2014-5-15T4:24:52Z</time></trkpt>
<trkpt lat="46.22486972" lon="7.26348672"><ele></ele><time>2014-5-15T4:24:55Z</time></trkpt>
<trkpt lat="46.22505689" lon="7.26314289"><ele></ele><time>2014-5-15T4:24:58Z</time></trkpt>
<trkpt lat="46.22514641" lon="7.26307877"><ele></ele><time>2014-5-15T4:25:1Z</time></trkpt>
<trkpt lat="46.22521154" lon="7.26310015"><ele></ele><time>2014-5-15T4:25:4Z</time></trkpt>
<trkpt lat="46.22544757" lon="7.26337885"><ele></ele><time>2014-5-15T4:25:7Z</time></trkpt>
<trkpt lat="46.22551270" lon="7.26331481"><ele></ele><time>2014-5-15T4:25:10Z</time></trkpt>
<trkpt lat="46.22542318" lon="7.26307877"><ele></ele><time>2014-5-15T4:25:13Z</time></trkpt>
<trkpt lat="46.22538244" lon="7.26275733"><ele></ele><time>2014-5-15T4:25:16Z</time></trkpt>
<trkpt lat="46.22529292" lon="7.26243488"><ele></ele><time>2014-5-15T4:25:19Z</time></trkpt>
<trkpt lat="46.22514641" lon="7.26224259"><ele></ele><time>2014-5-15T4:25:22Z</time></trkpt>
<trkpt lat="46.22512202" lon="7.26213472"><ele></ele><time>2014-5-15T4:25:25Z</time></trkpt>
<trkpt lat="46.22517088" lon="7.26209206"><ele></ele><time>2014-5-15T4:25:28Z</time></trkpt>
<trkpt lat="46.22523593" lon="7.26213472"><ele></ele><time>2014-5-15T4:25:31Z</time></trkpt>
<trkpt lat="46.22583817" lon="7.26280008"><ele></ele><time>2014-5-15T4:25:34Z</time></trkpt>
<trkpt lat="46.22590329" lon="7.26290686"><ele></ele><time>2014-5-15T4:25:37Z</time></trkpt>
<trkpt lat="46.22617998" lon="7.26290686"><ele></ele><time>2014-5-15T4:25:40Z</time></trkpt>
<trkpt lat="46.22643228" lon="7.26314289"><ele></ele><time>2014-5-15T4:25:43Z</time></trkpt>
<trkpt lat="46.22660310" lon="7.26350809"><ele></ele><time>2014-5-15T4:25:46Z</time></trkpt>
<trkpt lat="46.22780758" lon="7.26404412"><ele></ele><time>2014-5-15T4:25:49Z</time></trkpt>
<trkpt lat="46.22808427" lon="7.26451619"><ele></ele><time>2014-5-15T4:25:52Z</time></trkpt>
<trkpt lat="46.22827956" lon="7.26511734"><ele></ele><time>2014-5-15T4:25:55Z</time></trkpt>
<trkpt lat="46.22840982" lon="7.26546116"><ele></ele><time>2014-5-15T4:25:58Z</time></trkpt>
<trkpt lat="46.22849121" lon="7.26556795"><ele></ele><time>2014-5-15T4:26:1Z</time></trkpt>
<trkpt lat="46.22858073" lon="7.26584673"><ele></ele><time>2014-5-15T4:26:4Z</time></trkpt>
<trkpt lat="46.22889807" lon="7.26599727"><ele></ele><time>2014-5-15T4:26:7Z</time></trkpt>
<trkpt lat="46.22898758" lon="7.26634009"><ele></ele><time>2014-5-15T4:26:10Z</time></trkpt>
<trkpt lat="46.22901198" lon="7.26659850"><ele></ele><time>2014-5-15T4:26:13Z</time></trkpt>
<trkpt lat="46.22911775" lon="7.26657612"><ele></ele><time>2014-5-15T4:26:16Z</time></trkpt>
<trkpt lat="46.22927240" lon="7.26625468"><ele></ele><time>2014-5-15T4:26:19Z</time></trkpt>
<trkpt lat="46.22928866" lon="7.26614781"><ele></ele><time>2014-5-15T4:26:22Z</time></trkpt>
<trkpt lat="46.22937005" lon="7.26623330"><ele></ele><time>2014-5-15T4:26:25Z</time></trkpt>
<trkpt lat="46.22967934" lon="7.26666254"><ele></ele><time>2014-5-15T4:26:28Z</time></trkpt>
<trkpt lat="46.22973626" lon="7.26664117"><ele></ele><time>2014-5-15T4:26:31Z</time></trkpt>
<trkpt lat="46.22973626" lon="7.26634009"><ele></ele><time>2014-5-15T4:26:34Z</time></trkpt>
<trkpt lat="46.22978512" lon="7.26619055"><ele></ele><time>2014-5-15T4:26:37Z</time></trkpt>
<trkpt lat="46.23036289" lon="7.26672666"><ele></ele><time>2014-5-15T4:26:40Z</time></trkpt>
<trkpt lat="46.23059892" lon="7.26722002"><ele></ele><time>2014-5-15T4:26:43Z</time></trkpt>
<trkpt lat="46.23102212" lon="7.26846515"><ele></ele><time>2014-5-15T4:26:46Z</time></trkpt>
<trkpt lat="46.23117677" lon="7.26874385"><ele></ele><time>2014-5-15T4:26:49Z</time></trkpt>
<trkpt lat="46.23139646" lon="7.26902255"><ele></ele><time>2014-5-15T4:26:52Z</time></trkpt>
<trkpt lat="46.23151850" lon="7.26908667"><ele></ele><time>2014-5-15T4:26:55Z</time></trkpt>
<trkpt lat="46.23154289" lon="7.26904392"><ele></ele><time>2014-5-15T4:26:58Z</time></trkpt>
<trkpt lat="46.23158363" lon="7.26790667"><ele></ele><time>2014-5-15T4:27:1Z</time></trkpt>
<trkpt lat="46.23154289" lon="7.26741331"><ele></ele><time>2014-5-15T4:27:4Z</time></trkpt>
<trkpt lat="46.23142898" lon="7.26700536"><ele></ele><time>2014-5-15T4:27:7Z</time></trkpt>
<trkpt lat="46.23139646" lon="7.26627597"><ele></ele><time>2014-5-15T4:27:10Z</time></trkpt>
<trkpt lat="46.23133133" lon="7.26601864"><ele></ele><time>2014-5-15T4:27:13Z</time></trkpt>
<trkpt lat="46.23133133" lon="7.26582536"><ele></ele><time>2014-5-15T4:27:16Z</time></trkpt>
<trkpt lat="46.23136385" lon="7.26584673"><ele></ele><time>2014-5-15T4:27:19Z</time></trkpt>
<trkpt lat="46.23164875" lon="7.26625468"><ele></ele><time>2014-5-15T4:27:22Z</time></trkpt>
<trkpt lat="46.23192544" lon="7.26659850"><ele></ele><time>2014-5-15T4:27:25Z</time></trkpt>
<trkpt lat="46.23218587" lon="7.26702673"><ele></ele><time>2014-5-15T4:27:28Z</time></trkpt>
<trkpt lat="46.23280437" lon="7.26752110"><ele></ele><time>2014-5-15T4:27:31Z</time></trkpt>
<trkpt lat="46.23314610" lon="7.26797179"><ele></ele><time>2014-5-15T4:27:34Z</time></trkpt>
<trkpt lat="46.23352052" lon="7.26859331"><ele></ele><time>2014-5-15T4:27:37Z</time></trkpt>
<trkpt lat="46.23381346" lon="7.26897988"><ele></ele><time>2014-5-15T4:27:40Z</time></trkpt>
<trkpt lat="46.23411454" lon="7.26925858"><ele></ele><time>2014-5-15T4:27:43Z</time></trkpt>
<trkpt lat="46.23454588" lon="7.26955966"><ele></ele><time>2014-5-15T4:27:46Z</time></trkpt>
<trkpt lat="46.23495273" lon="7.26970919"><ele></ele><time>2014-5-15T4:27:49Z</time></trkpt>
<trkpt lat="46.23542472" lon="7.26998798"><ele></ele><time>2014-5-15T4:27:52Z</time></trkpt>
<trkpt lat="46.23583166" lon="7.27035318"><ele></ele><time>2014-5-15T4:27:55Z</time></trkpt>
<trkpt lat="46.23604322" lon="7.27073975"><ele></ele><time>2014-5-15T4:27:58Z</time></trkpt>
<trkpt lat="46.23583166" lon="7.27140502"><ele></ele><time>2014-5-15T4:28:1Z</time></trkpt>
<trkpt lat="46.23587240" lon="7.27181188"><ele></ele><time>2014-5-15T4:28:4Z</time></trkpt>
<trkpt lat="46.23587240" lon="7.27271318"><ele></ele><time>2014-5-15T4:28:7Z</time></trkpt>
<trkpt lat="46.23593744" lon="7.27316380"><ele></ele><time>2014-5-15T4:28:10Z</time></trkpt>
<trkpt lat="46.23575027" lon="7.27333571"><ele></ele><time>2014-5-15T4:28:13Z</time></trkpt>
<trkpt lat="46.23559562" lon="7.27322892"><ele></ele><time>2014-5-15T4:28:16Z</time></trkpt>
<trkpt lat="46.23544919" lon="7.27297051"><ele></ele><time>2014-5-15T4:28:19Z</time></trkpt>
<trkpt lat="46.23534341" lon="7.27251990"><ele></ele><time>2014-5-15T4:28:22Z</time></trkpt>
<trkpt lat="46.23525389" lon="7.27234899"><ele></ele><time>2014-5-15T4:28:25Z</time></trkpt>
<trkpt lat="46.23503412" lon="7.27204791"><ele></ele><time>2014-5-15T4:28:28Z</time></trkpt>
<trkpt lat="46.23488769" lon="7.27166235"><ele></ele><time>2014-5-15T4:28:31Z</time></trkpt>
<trkpt lat="46.23474117" lon="7.27101845"><ele></ele><time>2014-5-15T4:28:34Z</time></trkpt>
<trkpt lat="46.23456214" lon="7.27082516"><ele></ele><time>2014-5-15T4:28:37Z</time></trkpt>
<trkpt lat="46.23448075" lon="7.27140502"><ele></ele><time>2014-5-15T4:28:40Z</time></trkpt>
<trkpt lat="46.23437497" lon="7.27179050"><ele></ele><time>2014-5-15T4:28:43Z</time></trkpt>
<trkpt lat="46.23444010" lon="7.27234899"><ele></ele><time>2014-5-15T4:28:46Z</time></trkpt>
<trkpt lat="46.23501786" lon="7.27389319"><ele></ele><time>2014-5-15T4:28:49Z</time></trkpt>
<trkpt lat="46.23542472" lon="7.27453709"><ele></ele><time>2014-5-15T4:28:52Z</time></trkpt>
<trkpt lat="46.23593744" lon="7.27481587"><ele></ele><time>2014-5-15T4:28:55Z</time></trkpt>
<trkpt lat="46.23600257" lon="7.27488091"><ele></ele><time>2014-5-15T4:28:58Z</time></trkpt>
<trkpt lat="46.23598631" lon="7.27531023"><ele></ele><time>2014-5-15T4:29:1Z</time></trkpt>
<trkpt lat="46.23606769" lon="7.27657565"><ele></ele><time>2014-5-15T4:29:4Z</time></trkpt>
<trkpt lat="46.23622226" lon="7.27728367"><ele></ele><time>2014-5-15T4:29:7Z</time></trkpt>
<trkpt lat="46.23653968" lon="7.27812085"><ele></ele><time>2014-5-15T4:29:10Z</time></trkpt>
<trkpt lat="46.23690588" lon="7.27960101"><ele></ele><time>2014-5-15T4:29:13Z</time></trkpt>
<trkpt lat="46.23692214" lon="7.28056736"><ele></ele><time>2014-5-15T4:29:16Z</time></trkpt>
<trkpt lat="46.23671872" lon="7.28099568"><ele></ele><time>2014-5-15T4:29:19Z</time></trkpt>
<trkpt lat="46.23675124" lon="7.28176874"><ele></ele><time>2014-5-15T4:29:22Z</time></trkpt>
<trkpt lat="46.23699540" lon="7.28337807"><ele></ele><time>2014-5-15T4:29:25Z</time></trkpt>
<trkpt lat="46.23694654" lon="7.28541663"><ele></ele><time>2014-5-15T4:29:28Z</time></trkpt>
<trkpt lat="46.23716631" lon="7.28653260"><ele></ele><time>2014-5-15T4:29:31Z</time></trkpt>
<trkpt lat="46.23778481" lon="7.28792718"><ele></ele><time>2014-5-15T4:29:34Z</time></trkpt>
<trkpt lat="46.23776042" lon="7.28827000"><ele></ele><time>2014-5-15T4:29:37Z</time></trkpt>
<trkpt lat="46.23744300" lon="7.28822725"><ele></ele><time>2014-5-15T4:29:40Z</time></trkpt>
<trkpt lat="46.23712557" lon="7.28799130"><ele></ele><time>2014-5-15T4:29:43Z</time></trkpt>
<trkpt lat="46.23636877" lon="7.28700458"><ele></ele><time>2014-5-15T4:29:46Z</time></trkpt>
<trkpt lat="46.23600257" lon="7.28646747"><ele></ele><time>2014-5-15T4:29:49Z</time></trkpt>
<trkpt lat="46.23589679" lon="7.28636060"><ele></ele><time>2014-5-15T4:29:52Z</time></trkpt>
<trkpt lat="46.23529455" lon="7.28449395"><ele></ele><time>2014-5-15T4:29:55Z</time></trkpt>
<trkpt lat="46.23514812" lon="7.28382868"><ele></ele><time>2014-5-15T4:29:58Z</time></trkpt>
<trkpt lat="46.23495273" lon="7.28346348"><ele></ele><time>2014-5-15T4:30:1Z</time></trkpt>
<trkpt lat="46.23471678" lon="7.28264867"><ele></ele><time>2014-5-15T4:30:4Z</time></trkpt>
<trkpt lat="46.23424480" lon="7.28196203"><ele></ele><time>2014-5-15T4:30:7Z</time></trkpt>
<trkpt lat="46.23403315" lon="7.28179011"><ele></ele><time>2014-5-15T4:30:10Z</time></trkpt>
<trkpt lat="46.23374834" lon="7.28112484"><ele></ele><time>2014-5-15T4:30:13Z</time></trkpt>
<trkpt lat="46.23362630" lon="7.28095293"><ele></ele><time>2014-5-15T4:30:16Z</time></trkpt>
<trkpt lat="46.23334140" lon="7.28065286"><ele></ele><time>2014-5-15T4:30:19Z</time></trkpt>
<trkpt lat="46.23284502" lon="7.28033141"><ele></ele><time>2014-5-15T4:30:22Z</time></trkpt>
<trkpt lat="46.23299967" lon="7.28009538"><ele></ele><time>2014-5-15T4:30:25Z</time></trkpt>
<trkpt lat="46.23299967" lon="7.27981559"><ele></ele><time>2014-5-15T4:30:28Z</time></trkpt>
<trkpt lat="46.23229165" lon="7.27949414"><ele></ele><time>2014-5-15T4:30:31Z</time></trkpt>
<trkpt lat="46.23208000" lon="7.27927957"><ele></ele><time>2014-5-15T4:30:34Z</time></trkpt>
<trkpt lat="46.23186031" lon="7.27897941"><ele></ele><time>2014-5-15T4:30:37Z</time></trkpt>
<trkpt lat="46.23177079" lon="7.27848505"><ele></ele><time>2014-5-15T4:30:40Z</time></trkpt>
<trkpt lat="46.23177079" lon="7.27816360"><ele></ele><time>2014-5-15T4:30:43Z</time></trkpt>
<trkpt lat="46.23167315" lon="7.27801306"><ele></ele><time>2014-5-15T4:30:46Z</time></trkpt>
<trkpt lat="46.23150224" lon="7.27812085"><ele></ele><time>2014-5-15T4:30:49Z</time></trkpt>
<trkpt lat="46.23130694" lon="7.27812085"><ele></ele><time>2014-5-15T4:30:52Z</time></trkpt>
<trkpt lat="46.23116042" lon="7.27799169"><ele></ele><time>2014-5-15T4:30:55Z</time></trkpt>
<trkpt lat="46.23057453" lon="7.27706909"><ele></ele><time>2014-5-15T4:30:58Z</time></trkpt>
<trkpt lat="46.22973626" lon="7.27616779"><ele></ele><time>2014-5-15T4:31:1Z</time></trkpt>
<trkpt lat="46.22935379" lon="7.27571709"><ele></ele><time>2014-5-15T4:31:4Z</time></trkpt>
<trkpt lat="46.22919914" lon="7.27550251"><ele></ele><time>2014-5-15T4:31:7Z</time></trkpt>
<trkpt lat="46.22915849" lon="7.27586771"><ele></ele><time>2014-5-15T4:31:10Z</time></trkpt>
<trkpt lat="46.22910149" lon="7.27593175"><ele></ele><time>2014-5-15T4:31:13Z</time></trkpt>
<trkpt lat="46.22885741" lon="7.27666215"><ele></ele><time>2014-5-15T4:31:16Z</time></trkpt>
<trkpt lat="46.22866211" lon="7.27711176"><ele></ele><time>2014-5-15T4:31:19Z</time></trkpt>
<trkpt lat="46.22872716" lon="7.27777703"><ele></ele><time>2014-5-15T4:31:22Z</time></trkpt>
<trkpt lat="46.22889807" lon="7.27816360"><ele></ele><time>2014-5-15T4:31:25Z</time></trkpt>
<trkpt lat="46.22889807" lon="7.27861430"><ele></ele><time>2014-5-15T4:31:28Z</time></trkpt>
<trkpt lat="46.22902832" lon="7.27906491"><ele></ele><time>2014-5-15T4:31:31Z</time></trkpt>
<trkpt lat="46.22930501" lon="7.27925819"><ele></ele><time>2014-5-15T4:31:34Z</time></trkpt>
<trkpt lat="46.22944331" lon="7.27964477"><ele></ele><time>2014-5-15T4:31:37Z</time></trkpt>
<trkpt lat="46.22971186" lon="7.28080340"><ele></ele><time>2014-5-15T4:31:40Z</time></trkpt>
<trkpt lat="46.22993155" lon="7.28125401"><ele></ele><time>2014-5-15T4:31:43Z</time></trkpt>
<trkpt lat="46.23003742" lon="7.28159683"><ele></ele><time>2014-5-15T4:31:46Z</time></trkpt>
<trkpt lat="46.23008620" lon="7.28211156"><ele></ele><time>2014-5-15T4:31:49Z</time></trkpt>
<trkpt lat="46.22986651" lon="7.28275546"><ele></ele><time>2014-5-15T4:31:52Z</time></trkpt>
<trkpt lat="46.22944331" lon="7.28271279"><ele></ele><time>2014-5-15T4:31:55Z</time></trkpt>
<trkpt lat="46.22924801" lon="7.28281958"><ele></ele><time>2014-5-15T4:31:58Z</time></trkpt>
<trkpt lat="46.22910149" lon="7.28316341"><ele></ele><time>2014-5-15T4:32:1Z</time></trkpt>
<trkpt lat="46.22902832" lon="7.28337807"><ele></ele><time>2014-5-15T4:32:4Z</time></trkpt>
<trkpt lat="46.22898758" lon="7.28421525"><ele></ele><time>2014-5-15T4:32:7Z</time></trkpt>
<trkpt lat="46.22885741" lon="7.28423662"><ele></ele><time>2014-5-15T4:32:10Z</time></trkpt>
<trkpt lat="46.22872716" lon="7.28400059"><ele></ele><time>2014-5-15T4:32:13Z</time></trkpt>
<trkpt lat="46.22843421" lon="7.28331394"><ele></ele><time>2014-5-15T4:32:16Z</time></trkpt>
<trkpt lat="46.22821444" lon="7.28305561"><ele></ele><time>2014-5-15T4:32:19Z</time></trkpt>
<trkpt lat="46.22810866" lon="7.28260492"><ele></ele><time>2014-5-15T4:32:22Z</time></trkpt>
<trkpt lat="46.22814939" lon="7.28241264"><ele></ele><time>2014-5-15T4:32:25Z</time></trkpt>
<trkpt lat="46.22804361" lon="7.28209019"><ele></ele><time>2014-5-15T4:32:28Z</time></trkpt>
<trkpt lat="46.22791336" lon="7.28202615"><ele></ele><time>2014-5-15T4:32:31Z</time></trkpt>
<trkpt lat="46.22744137" lon="7.28202615"><ele></ele><time>2014-5-15T4:32:34Z</time></trkpt>
<trkpt lat="46.22580774" lon="7.28656453"><ele></ele><time>2014-5-15T4:32:37Z</time></trkpt>
<trkpt lat="46.22596172" lon="7.28700140"><ele></ele><time>2014-5-15T4:32:40Z</time></trkpt>
<trkpt lat="46.22633220" lon="7.28844057"><ele></ele><time>2014-5-15T4:32:43Z</time></trkpt>
<trkpt lat="46.22659908" lon="7.28950700"><ele></ele><time>2014-5-15T4:32:46Z</time></trkpt>
<trkpt lat="46.22686336" lon="7.29078759"><ele></ele><time>2014-5-15T4:32:49Z</time></trkpt>
<trkpt lat="46.22689789" lon="7.29102018"><ele></ele><time>2014-5-15T4:32:52Z</time></trkpt>
<trkpt lat="46.22685598" lon="7.29183256"><ele></ele><time>2014-5-15T4:32:55Z</time></trkpt>
<trkpt lat="46.22672187" lon="7.29295196"><ele></ele><time>2014-5-15T4:32:58Z</time></trkpt>
<trkpt lat="46.22662925" lon="7.29373181"><ele></ele><time>2014-5-15T4:33:1Z</time></trkpt>
<trkpt lat="46.22659078" lon="7.29402459"><ele></ele><time>2014-5-15T4:33:4Z</time></trkpt>
<trkpt lat="46.22671852" lon="7.29415543"><ele></ele><time>2014-5-15T4:33:7Z</time></trkpt>
<trkpt lat="46.22703594" lon="7.29428401"><ele></ele><time>2014-5-15T4:33:10Z</time></trkpt>
<trkpt lat="46.22732763" lon="7.29458727"><ele></ele><time>2014-5-15T4:33:13Z</time></trkpt>
<trkpt lat="46.22770641" lon="7.29485415"><ele></ele><time>2014-5-15T4:33:16Z</time></trkpt>
<trkpt lat="46.22818636" lon="7.29495490"><ele></ele><time>2014-5-15T4:33:19Z</time></trkpt>
<trkpt lat="46.22836330" lon="7.29499413"><ele></ele><time>2014-5-15T4:33:22Z</time></trkpt>
<trkpt lat="46.22852306" lon="7.29524106"><ele></ele><time>2014-5-15T4:33:25Z</time></trkpt>
<trkpt lat="46.22867150" lon="7.29555228"><ele></ele><time>2014-5-15T4:33:28Z</time></trkpt>
<trkpt lat="46.22876488" lon="7.29591697"><ele></ele><time>2014-5-15T4:33:31Z</time></trkpt>
<trkpt lat="46.22883646" lon="7.29663120"><ele></ele><time>2014-5-15T4:33:34Z</time></trkpt>
<trkpt lat="46.22905489" lon="7.29747316"><ele></ele><time>2014-5-15T4:33:37Z</time></trkpt>
<trkpt lat="46.22923804" lon="7.29812577"><ele></ele><time>2014-5-15T4:33:40Z</time></trkpt>
<trkpt lat="46.22928355" lon="7.29892138"><ele></ele><time>2014-5-15T4:33:43Z</time></trkpt>
<trkpt lat="46.22941087" lon="7.29938440"><ele></ele><time>2014-5-15T4:33:46Z</time></trkpt>
<trkpt lat="46.22969518" lon="7.30030297"><ele></ele><time>2014-5-15T4:33:49Z</time></trkpt>
<trkpt lat="46.22993683" lon="7.30128340"><ele></ele><time>2014-5-15T4:33:52Z</time></trkpt>
<trkpt lat="46.22993843" lon="7.30192194"><ele></ele><time>2014-5-15T4:33:55Z</time></trkpt>
<trkpt lat="46.22995871" lon="7.30293497"><ele></ele><time>2014-5-15T4:33:58Z</time></trkpt>
<trkpt lat="46.23009810" lon="7.30346899"><ele></ele><time>2014-5-15T4:34:1Z</time></trkpt>
<trkpt lat="46.23022232" lon="7.30417365"><ele></ele><time>2014-5-15T4:34:4Z</time></trkpt>
<trkpt lat="46.23023339" lon="7.30426082"><ele></ele><time>2014-5-15T4:34:7Z</time></trkpt>
<trkpt lat="46.23040488" lon="7.30501201"><ele></ele><time>2014-5-15T4:34:10Z</time></trkpt>
<trkpt lat="46.23071074" lon="7.30624021"><ele></ele><time>2014-5-15T4:34:13Z</time></trkpt>
<trkpt lat="46.23082976" lon="7.30700104"><ele></ele><time>2014-5-15T4:34:16Z</time></trkpt>
<trkpt lat="46.23106973" lon="7.30790201"><ele></ele><time>2014-5-15T4:34:19Z</time></trkpt>
<trkpt lat="46.23141867" lon="7.30861422"><ele></ele><time>2014-5-15T4:34:22Z</time></trkpt>
<trkpt lat="46.23145388" lon="7.30867725"><ele></ele><time>2014-5-15T4:34:25Z</time></trkpt>
<trkpt lat="46.23149495" lon="7.30891194"><ele></ele><time>2014-5-15T4:34:28Z</time></trkpt>
<trkpt lat="46.23154331" lon="7.30907137"><ele></ele><time>2014-5-15T4:34:31Z</time></trkpt>
<trkpt lat="46.23158924" lon="7.30941813"><ele></ele><time>2014-5-15T4:34:34Z</time></trkpt>
<trkpt lat="46.23160911" lon="7.30987578"><ele></ele><time>2014-5-15T4:34:37Z</time></trkpt>
<trkpt lat="46.23179468" lon="7.31034910"><ele></ele><time>2014-5-15T4:34:40Z</time></trkpt>
<trkpt lat="46.23205394" lon="7.31092812"><ele></ele><time>2014-5-15T4:34:43Z</time></trkpt>
<trkpt lat="46.23213926" lon="7.31115301"><ele></ele><time>2014-5-15T4:34:46Z</time></trkpt>
<trkpt lat="46.23216324" lon="7.31118880"><ele></ele><time>2014-5-15T4:34:49Z</time></trkpt>
<trkpt lat="46.23223063" lon="7.31126675"><ele></ele><time>2014-5-15T4:34:52Z</time></trkpt>
<trkpt lat="46.23238427" lon="7.31168183"><ele></ele><time>2014-5-15T4:34:55Z</time></trkpt>
<trkpt lat="46.23254025" lon="7.31231701"><ele></ele><time>2014-5-15T4:34:58Z</time></trkpt>
<trkpt lat="46.23258149" lon="7.31240870"><ele></ele><time>2014-5-15T4:35:1Z</time></trkpt>
<trkpt lat="46.23272298" lon="7.31238306"><ele></ele><time>2014-5-15T4:35:4Z</time></trkpt>
<trkpt lat="46.23318013" lon="7.31219052"><ele></ele><time>2014-5-15T4:35:7Z</time></trkpt>
<trkpt lat="46.23386904" lon="7.31188660"><ele></ele><time>2014-5-15T4:35:10Z</time></trkpt>
<trkpt lat="46.23438695" lon="7.31166573"><ele></ele><time>2014-5-15T4:35:13Z</time></trkpt>
<trkpt lat="46.23455803" lon="7.31169457"><ele></ele><time>2014-5-15T4:35:16Z</time></trkpt>
<trkpt lat="46.23478903" lon="7.31195290"><ele></ele><time>2014-5-15T4:35:19Z</time></trkpt>
<trkpt lat="46.23511802" lon="7.31233570"><ele></ele><time>2014-5-15T4:35:22Z</time></trkpt>
<trkpt lat="46.23531533" lon="7.31250627"><ele></ele><time>2014-5-15T4:35:25Z</time></trkpt>
<trkpt lat="46.23565514" lon="7.31277365"><ele></ele><time>2014-5-15T4:35:28Z</time></trkpt>
<trkpt lat="46.23602076" lon="7.31306878"><ele></ele><time>2014-5-15T4:35:31Z</time></trkpt>
<trkpt lat="46.23626861" lon="7.31330029"><ele></ele><time>2014-5-15T4:35:34Z</time></trkpt>
<trkpt lat="46.23647430" lon="7.31350279"><ele></ele><time>2014-5-15T4:35:37Z</time></trkpt>
<trkpt lat="46.23679725" lon="7.31381619"><ele></ele><time>2014-5-15T4:35:40Z</time></trkpt>
<trkpt lat="46.23705265" lon="7.31396405"><ele></ele><time>2014-5-15T4:35:43Z</time></trkpt>
<trkpt lat="46.23739941" lon="7.31399825"><ele></ele><time>2014-5-15T4:35:46Z</time></trkpt>
<trkpt lat="46.23765422" lon="7.31400127"><ele></ele><time>2014-5-15T4:35:49Z</time></trkpt>
<trkpt lat="46.23804591" lon="7.31407067"><ele></ele><time>2014-5-15T4:35:52Z</time></trkpt>
<trkpt lat="46.23838353" lon="7.31412448"><ele></ele><time>2014-5-15T4:35:55Z</time></trkpt>
<trkpt lat="46.23875401" lon="7.31406002"><ele></ele><time>2014-5-15T4:35:58Z</time></trkpt>
<trkpt lat="46.23904411" lon="7.31402968"><ele></ele><time>2014-5-15T4:36:1Z</time></trkpt>
<trkpt lat="46.23933923" lon="7.31418944"><ele></ele><time>2014-5-15T4:36:4Z</time></trkpt>
<trkpt lat="46.23970184" lon="7.31443905"><ele></ele><time>2014-5-15T4:36:7Z</time></trkpt>
<trkpt lat="46.23997961" lon="7.31456026"><ele></ele><time>2014-5-15T4:36:10Z</time></trkpt>
<trkpt lat="46.24032377" lon="7.31473812"><ele></ele><time>2014-5-15T4:36:13Z</time></trkpt>
<trkpt lat="46.24032847" lon="7.31495085"><ele></ele><time>2014-5-15T4:36:16Z</time></trkpt>
<trkpt lat="46.24018757" lon="7.31511086"><ele></ele><time>2014-5-15T4:36:19Z</time></trkpt>
<trkpt lat="46.23988959" lon="7.31539761"><ele></ele><time>2014-5-15T4:36:22Z</time></trkpt>
<trkpt lat="46.23974090" lon="7.31558578"><ele></ele><time>2014-5-15T4:36:25Z</time></trkpt>
<trkpt lat="46.23959337" lon="7.31586775"><ele></ele><time>2014-5-15T4:36:28Z</time></trkpt>
<trkpt lat="46.23955951" lon="7.31611585"><ele></ele><time>2014-5-15T4:36:31Z</time></trkpt>
<trkpt lat="46.23959388" lon="7.31615273"><ele></ele><time>2014-5-15T4:36:34Z</time></trkpt>
<trkpt lat="46.23980795" lon="7.31615634"><ele></ele><time>2014-5-15T4:36:37Z</time></trkpt>
<trkpt lat="46.24000082" lon="7.31633353"><ele></ele><time>2014-5-15T4:36:40Z</time></trkpt>
<trkpt lat="46.24021623" lon="7.31640360"><ele></ele><time>2014-5-15T4:36:43Z</time></trkpt>
<trkpt lat="46.24046467" lon="7.31646504"><ele></ele><time>2014-5-15T4:36:46Z</time></trkpt>
<trkpt lat="46.24071957" lon="7.31658876"><ele></ele><time>2014-5-15T4:36:49Z</time></trkpt>
<trkpt lat="46.24092903" lon="7.31650016"><ele></ele><time>2014-5-15T4:36:52Z</time></trkpt>
<trkpt lat="46.24110815" lon="7.31639178"><ele></ele><time>2014-5-15T4:36:55Z</time></trkpt>
<trkpt lat="46.24135265" lon="7.31652061"><ele></ele><time>2014-5-15T4:36:58Z</time></trkpt>
<trkpt lat="46.24160352" lon="7.31671608"><ele></ele><time>2014-5-15T4:37:1Z</time></trkpt>
<trkpt lat="46.24158357" lon="7.31689294"><ele></ele><time>2014-5-15T4:37:4Z</time></trkpt>
<trkpt lat="46.24143018" lon="7.31705387"><ele></ele><time>2014-5-15T4:37:7Z</time></trkpt>
<trkpt lat="46.24121787" lon="7.31724649"><ele></ele><time>2014-5-15T4:37:10Z</time></trkpt>
<trkpt lat="46.24086667" lon="7.31746039"><ele></ele><time>2014-5-15T4:37:13Z</time></trkpt>
<trkpt lat="46.24059082" lon="7.31744799"><ele></ele><time>2014-5-15T4:37:16Z</time></trkpt>
<trkpt lat="46.24020316" lon="7.31726510"><ele></ele><time>2014-5-15T4:37:19Z</time></trkpt>
<trkpt lat="46.23977275" lon="7.31700961"><ele></ele><time>2014-5-15T4:37:22Z</time></trkpt>
<trkpt lat="46.23970301" lon="7.31698606"><ele></ele><time>2014-5-15T4:37:25Z</time></trkpt>
<trkpt lat="46.23959505" lon="7.31713937"><ele></ele><time>2014-5-15T4:37:28Z</time></trkpt>
<trkpt lat="46.23936195" lon="7.31771814"><ele></ele><time>2014-5-15T4:37:31Z</time></trkpt>
<trkpt lat="46.23896423" lon="7.31794017"><ele></ele><time>2014-5-15T4:37:34Z</time></trkpt>
<trkpt lat="46.23825151" lon="7.31752879"><ele></ele><time>2014-5-15T4:37:37Z</time></trkpt>
<trkpt lat="46.23657086" lon="7.31676285"><ele></ele><time>2014-5-15T4:37:40Z</time></trkpt>
<trkpt lat="46.23654488" lon="7.31678045"><ele></ele><time>2014-5-15T4:37:43Z</time></trkpt>
<trkpt lat="46.23641957" lon="7.31711087"><ele></ele><time>2014-5-15T4:37:46Z</time></trkpt>
<trkpt lat="46.23658083" lon="7.31812390"><ele></ele><time>2014-5-15T4:37:49Z</time></trkpt>
<trkpt lat="46.23660975" lon="7.31822482"><ele></ele><time>2014-5-15T4:37:52Z</time></trkpt>
<trkpt lat="46.23665501" lon="7.31881575"><ele></ele><time>2014-5-15T4:37:55Z</time></trkpt>
<trkpt lat="46.23673146" lon="7.31977439"><ele></ele><time>2014-5-15T4:37:58Z</time></trkpt>
<trkpt lat="46.23653641" lon="7.32172653"><ele></ele><time>2014-5-15T4:38:1Z</time></trkpt>
<trkpt lat="46.23649601" lon="7.32218795"><ele></ele><time>2014-5-15T4:38:4Z</time></trkpt>
<trkpt lat="46.23653247" lon="7.32250236"><ele></ele><time>2014-5-15T4:38:7Z</time></trkpt>
<trkpt lat="46.23659165" lon="7.32267712"><ele></ele><time>2014-5-15T4:38:10Z</time></trkpt>
<trkpt lat="46.23670698" lon="7.32283487"><ele></ele><time>2014-5-15T4:38:13Z</time></trkpt>
<trkpt lat="46.23681419" lon="7.32296462"><ele></ele><time>2014-5-15T4:38:16Z</time></trkpt>
<trkpt lat="46.23692323" lon="7.32313938"><ele></ele><time>2014-5-15T4:38:19Z</time></trkpt>
<trkpt lat="46.23705600" lon="7.32334692"><ele></ele><time>2014-5-15T4:38:22Z</time></trkpt>
<trkpt lat="46.23718894" lon="7.32349394"><ele></ele><time>2014-5-15T4:38:25Z</time></trkpt>
<trkpt lat="46.23736429" lon="7.32362813"><ele></ele><time>2014-5-15T4:38:28Z</time></trkpt>
<trkpt lat="46.23752673" lon="7.32385905"><ele></ele><time>2014-5-15T4:38:31Z</time></trkpt>
<trkpt lat="46.23762622" lon="7.32420011"><ele></ele><time>2014-5-15T4:38:34Z</time></trkpt>
<trkpt lat="46.23771382" lon="7.32459951"><ele></ele><time>2014-5-15T4:38:37Z</time></trkpt>
<trkpt lat="46.23780526" lon="7.32497972"><ele></ele><time>2014-5-15T4:38:40Z</time></trkpt>
<trkpt lat="46.23793325" lon="7.32532388"><ele></ele><time>2014-5-15T4:38:43Z</time></trkpt>
<trkpt lat="46.23811036" lon="7.32561657"><ele></ele><time>2014-5-15T4:38:46Z</time></trkpt>
<trkpt lat="46.23826845" lon="7.32585026"><ele></ele><time>2014-5-15T4:38:49Z</time></trkpt>
<trkpt lat="46.23845075" lon="7.32619031"><ele></ele><time>2014-5-15T4:38:52Z</time></trkpt>
<trkpt lat="46.23862878" lon="7.32657580"><ele></ele><time>2014-5-15T4:38:55Z</time></trkpt>
<trkpt lat="46.23884663" lon="7.32703848"><ele></ele><time>2014-5-15T4:38:58Z</time></trkpt>
<trkpt lat="46.23900136" lon="7.32735674"><ele></ele><time>2014-5-15T4:39:1Z</time></trkpt>
<trkpt lat="46.23918358" lon="7.32779997"><ele></ele><time>2014-5-15T4:39:4Z</time></trkpt>
<trkpt lat="46.23938140" lon="7.32828914"><ele></ele><time>2014-5-15T4:39:7Z</time></trkpt>
<trkpt lat="46.23954526" lon="7.32866700"><ele></ele><time>2014-5-15T4:39:10Z</time></trkpt>
<trkpt lat="46.23970418" lon="7.32897294"><ele></ele><time>2014-5-15T4:39:13Z</time></trkpt>
<trkpt lat="46.23984240" lon="7.32940787"><ele></ele><time>2014-5-15T4:39:16Z</time></trkpt>
<trkpt lat="46.23994273" lon="7.32976729"><ele></ele><time>2014-5-15T4:39:19Z</time></trkpt>
<trkpt lat="46.24004474" lon="7.33012704"><ele></ele><time>2014-5-15T4:39:22Z</time></trkpt>
<trkpt lat="46.24011515" lon="7.33050372"><ele></ele><time>2014-5-15T4:39:25Z</time></trkpt>
<trkpt lat="46.24012068" lon="7.33090907"><ele></ele><time>2014-5-15T4:39:28Z</time></trkpt>
<trkpt lat="46.24008556" lon="7.33134552"><ele></ele><time>2014-5-15T4:39:31Z</time></trkpt>
<trkpt lat="46.24006645" lon="7.33188054"><ele></ele><time>2014-5-15T4:39:34Z</time></trkpt>
<trkpt lat="46.24012562" lon="7.33236560"><ele></ele><time>2014-5-15T4:39:37Z</time></trkpt>
<trkpt lat="46.24021892" lon="7.33301058"><ele></ele><time>2014-5-15T4:39:40Z</time></trkpt>
<trkpt lat="46.24038094" lon="7.33362196"><ele></ele><time>2014-5-15T4:39:43Z</time></trkpt>
<trkpt lat="46.24060784" lon="7.33422353"><ele></ele><time>2014-5-15T4:39:46Z</time></trkpt>
<trkpt lat="46.24080682" lon="7.33475553"><ele></ele><time>2014-5-15T4:39:49Z</time></trkpt>
<trkpt lat="46.24101251" lon="7.33535064"><ele></ele><time>2014-5-15T4:39:52Z</time></trkpt>
<trkpt lat="46.24119960" lon="7.33580830"><ele></ele><time>2014-5-15T4:39:55Z</time></trkpt>
<trkpt lat="46.24134720" lon="7.33617375"><ele></ele><time>2014-5-15T4:39:58Z</time></trkpt>
<trkpt lat="46.24128082" lon="7.33632253"><ele></ele><time>2014-5-15T4:40:1Z</time></trkpt>
<trkpt lat="46.24119247" lon="7.33642654"><ele></ele><time>2014-5-15T4:40:4Z</time></trkpt>
<trkpt lat="46.24148567" lon="7.33695871"><ele></ele><time>2014-5-15T4:40:7Z</time></trkpt>
<trkpt lat="46.24156580" lon="7.33703130"><ele></ele><time>2014-5-15T4:40:10Z</time></trkpt>
<trkpt lat="46.24176873" lon="7.33746615"><ele></ele><time>2014-5-15T4:40:13Z</time></trkpt>
<trkpt lat="46.24196512" lon="7.33790201"><ele></ele><time>2014-5-15T4:40:16Z</time></trkpt>
<trkpt lat="46.24223736" lon="7.33854088"><ele></ele><time>2014-5-15T4:40:19Z</time></trkpt>
<trkpt lat="46.24241833" lon="7.33903390"><ele></ele><time>2014-5-15T4:40:22Z</time></trkpt>
<trkpt lat="46.24261664" lon="7.33962013"><ele></ele><time>2014-5-15T4:40:25Z</time></trkpt>
<trkpt lat="46.24277162" lon="7.34016663"><ele></ele><time>2014-5-15T4:40:28Z</time></trkpt>
<trkpt lat="46.24289718" lon="7.34068170"><ele></ele><time>2014-5-15T4:40:31Z</time></trkpt>
<trkpt lat="46.24301386" lon="7.34128025"><ele></ele><time>2014-5-15T4:40:34Z</time></trkpt>
<trkpt lat="46.24311998" lon="7.34200378"><ele></ele><time>2014-5-15T4:40:37Z</time></trkpt>
<trkpt lat="46.24318234" lon="7.34257668"><ele></ele><time>2014-5-15T4:40:40Z</time></trkpt>
<trkpt lat="46.24323263" lon="7.34321698"><ele></ele><time>2014-5-15T4:40:43Z</time></trkpt>
<trkpt lat="46.24329608" lon="7.34414728"><ele></ele><time>2014-5-15T4:40:46Z</time></trkpt>
<trkpt lat="46.24336129" lon="7.34507424"><ele></ele><time>2014-5-15T4:40:49Z</time></trkpt>
<trkpt lat="46.24341787" lon="7.34597563"><ele></ele><time>2014-5-15T4:40:52Z</time></trkpt>
<trkpt lat="46.24342994" lon="7.34611745"><ele></ele><time>2014-5-15T4:40:55Z</time></trkpt>
<trkpt lat="46.24353639" lon="7.34703979"><ele></ele><time>2014-5-15T4:40:58Z</time></trkpt>
<trkpt lat="46.24363664" lon="7.34753709"><ele></ele><time>2014-5-15T4:41:1Z</time></trkpt>
<trkpt lat="46.24369782" lon="7.34787765"><ele></ele><time>2014-5-15T4:41:4Z</time></trkpt>
<trkpt lat="46.24384375" lon="7.34786583"><ele></ele><time>2014-5-15T4:41:7Z</time></trkpt>
<trkpt lat="46.24409194" lon="7.34777564"><ele></ele><time>2014-5-15T4:41:10Z</time></trkpt>
<trkpt lat="46.24458723" lon="7.34772242"><ele></ele><time>2014-5-15T4:41:13Z</time></trkpt>
<trkpt lat="46.24504798" lon="7.34763818"><ele></ele><time>2014-5-15T4:41:16Z</time></trkpt>
<trkpt lat="46.24543782" lon="7.34751714"><ele></ele><time>2014-5-15T4:41:19Z</time></trkpt>
<trkpt lat="46.24581308" lon="7.34732126"><ele></ele><time>2014-5-15T4:41:22Z</time></trkpt>
<trkpt lat="46.24615607" lon="7.34718950"><ele></ele><time>2014-5-15T4:41:25Z</time></trkpt>
<trkpt lat="46.24636495" lon="7.34738865"><ele></ele><time>2014-5-15T4:41:28Z</time></trkpt>
<trkpt lat="46.24673719" lon="7.34793230"><ele></ele><time>2014-5-15T4:41:31Z</time></trkpt>
<trkpt lat="46.24694916" lon="7.34809583"><ele></ele><time>2014-5-15T4:41:34Z</time></trkpt>
<trkpt lat="46.24770479" lon="7.34774706"><ele></ele><time>2014-5-15T4:41:37Z</time></trkpt>
<trkpt lat="46.24797863" lon="7.34802299"><ele></ele><time>2014-5-15T4:41:40Z</time></trkpt>
<trkpt lat="46.24812515" lon="7.34810421"><ele></ele><time>2014-5-15T4:41:43Z</time></trkpt>
<trkpt lat="46.24855178" lon="7.34814855"><ele></ele><time>2014-5-15T4:41:46Z</time></trkpt>
<trkpt lat="46.24907230" lon="7.34815107"><ele></ele><time>2014-5-15T4:41:49Z</time></trkpt>
<trkpt lat="46.24948737" lon="7.34804378"><ele></ele><time>2014-5-15T4:41:52Z</time></trkpt>
<trkpt lat="46.24977588" lon="7.34795853"><ele></ele><time>2014-5-15T4:41:55Z</time></trkpt>
<trkpt lat="46.24986598" lon="7.34818434"><ele></ele><time>2014-5-15T4:41:58Z</time></trkpt>
<trkpt lat="46.25007654" lon="7.34886940"><ele></ele><time>2014-5-15T4:42:1Z</time></trkpt>
<trkpt lat="46.25024878" lon="7.34930844"><ele></ele><time>2014-5-15T4:42:4Z</time></trkpt>
<trkpt lat="46.25041332" lon="7.34930450"><ele></ele><time>2014-5-15T4:42:7Z</time></trkpt>
<trkpt lat="46.25072471" lon="7.34915623"><ele></ele><time>2014-5-15T4:42:10Z</time></trkpt>
<trkpt lat="46.25103660" lon="7.34900887"><ele></ele><time>2014-5-15T4:42:13Z</time></trkpt>
<trkpt lat="46.25114012" lon="7.34908791"><ele></ele><time>2014-5-15T4:42:16Z</time></trkpt>
<trkpt lat="46.25119594" lon="7.34922588"><ele></ele><time>2014-5-15T4:42:19Z</time></trkpt>
<trkpt lat="46.25135838" lon="7.34979308"><ele></ele><time>2014-5-15T4:42:22Z</time></trkpt>
<trkpt lat="46.25190949" lon="7.35225066"><ele></ele><time>2014-5-15T4:42:25Z</time></trkpt>
<trkpt lat="46.25233538" lon="7.35341700"><ele></ele><time>2014-5-15T4:42:28Z</time></trkpt>
<trkpt lat="46.25272321" lon="7.35435443"><ele></ele><time>2014-5-15T4:42:31Z</time></trkpt>
<trkpt lat="46.25279613" lon="7.35457580"><ele></ele><time>2014-5-15T4:42:34Z</time></trkpt>
<trkpt lat="46.25288053" lon="7.35518080"><ele></ele><time>2014-5-15T4:42:37Z</time></trkpt>
<trkpt lat="46.25285044" lon="7.35612812"><ele></ele><time>2014-5-15T4:42:40Z</time></trkpt>
<trkpt lat="46.25295606" lon="7.35681863"><ele></ele><time>2014-5-15T4:42:43Z</time></trkpt>
<trkpt lat="46.25326476" lon="7.35802998"><ele></ele><time>2014-5-15T4:42:46Z</time></trkpt>
<trkpt lat="46.25349971" lon="7.35860162"><ele></ele><time>2014-5-15T4:42:49Z</time></trkpt>
<trkpt lat="46.25375359" lon="7.35902382"><ele></ele><time>2014-5-15T4:42:52Z</time></trkpt>
<trkpt lat="46.25411200" lon="7.35958759"><ele></ele><time>2014-5-15T4:42:55Z</time></trkpt>
<trkpt lat="46.25427864" lon="7.35974031"><ele></ele><time>2014-5-15T4:42:58Z</time></trkpt>
<trkpt lat="46.25456722" lon="7.35987769"><ele></ele><time>2014-5-15T4:43:1Z</time></trkpt>
<trkpt lat="46.25475909" lon="7.36010400"><ele></ele><time>2014-5-15T4:43:4Z</time></trkpt>
<trkpt lat="46.25514708" lon="7.36086038"><ele></ele><time>2014-5-15T4:43:7Z</time></trkpt>
<trkpt lat="46.25545495" lon="7.36132993"><ele></ele><time>2014-5-15T4:43:10Z</time></trkpt>
<trkpt lat="46.25589366" lon="7.36184886"><ele></ele><time>2014-5-15T4:43:13Z</time></trkpt>
<trkpt lat="46.25643589" lon="7.36219076"><ele></ele><time>2014-5-15T4:43:16Z</time></trkpt>
<trkpt lat="46.25662574" lon="7.36234549"><ele></ele><time>2014-5-15T4:43:19Z</time></trkpt>
<trkpt lat="46.25699563" lon="7.36272619"><ele></ele><time>2014-5-15T4:43:22Z</time></trkpt>
<trkpt lat="46.25748555" lon="7.36323321"><ele></ele><time>2014-5-15T4:43:25Z</time></trkpt>
<trkpt lat="46.25771463" lon="7.36365004"><ele></ele><time>2014-5-15T4:43:28Z</time></trkpt>
<trkpt lat="46.25800297" lon="7.36428732"><ele></ele><time>2014-5-15T4:43:31Z</time></trkpt>
<trkpt lat="46.25831343" lon="7.36490347"><ele></ele><time>2014-5-15T4:43:34Z</time></trkpt>
<trkpt lat="46.25861594" lon="7.36542500"><ele></ele><time>2014-5-15T4:43:37Z</time></trkpt>
<trkpt lat="46.25886446" lon="7.36576287"><ele></ele><time>2014-5-15T4:43:40Z</time></trkpt>
<trkpt lat="46.25925941" lon="7.36628280"><ele></ele><time>2014-5-15T4:43:43Z</time></trkpt>
<trkpt lat="46.25948958" lon="7.36667516"><ele></ele><time>2014-5-15T4:43:46Z</time></trkpt>
<trkpt lat="46.25962176" lon="7.36691664"><ele></ele><time>2014-5-15T4:43:49Z</time></trkpt>
<trkpt lat="46.26003608" lon="7.36725016"><ele></ele><time>2014-5-15T4:43:52Z</time></trkpt>
<trkpt lat="46.26034780" lon="7.36763564"><ele></ele><time>2014-5-15T4:43:55Z</time></trkpt>
<trkpt lat="46.26065710" lon="7.36814677"><ele></ele><time>2014-5-15T4:43:58Z</time></trkpt>
<trkpt lat="46.26100687" lon="7.36890022"><ele></ele><time>2014-5-15T4:44:1Z</time></trkpt>
<trkpt lat="46.26144215" lon="7.36939182"><ele></ele><time>2014-5-15T4:44:4Z</time></trkpt>
<trkpt lat="46.26172101" lon="7.36958284"><ele></ele><time>2014-5-15T4:44:7Z</time></trkpt>
<trkpt lat="46.26201186" lon="7.36960321"><ele></ele><time>2014-5-15T4:44:10Z</time></trkpt>
<trkpt lat="46.26243607" lon="7.36948385"><ele></ele><time>2014-5-15T4:44:13Z</time></trkpt>
<trkpt lat="46.26272148" lon="7.36969935"><ele></ele><time>2014-5-15T4:44:16Z</time></trkpt>
<trkpt lat="46.26280680" lon="7.37006245"><ele></ele><time>2014-5-15T4:44:19Z</time></trkpt>
<trkpt lat="46.26304544" lon="7.37062957"><ele></ele><time>2014-5-15T4:44:22Z</time></trkpt>
<trkpt lat="46.26332958" lon="7.37071850"><ele></ele><time>2014-5-15T4:44:25Z</time></trkpt>
<trkpt lat="46.26425453" lon="7.37066469"><ele></ele><time>2014-5-15T4:44:28Z</time></trkpt>
<trkpt lat="46.26425595" lon="7.37086602"><ele></ele><time>2014-5-15T4:44:31Z</time></trkpt>
<trkpt lat="46.26415461" lon="7.37098396"><ele></ele><time>2014-5-15T4:44:34Z</time></trkpt>
<trkpt lat="46.26369176" lon="7.37133776"><ele></ele><time>2014-5-15T4:44:37Z</time></trkpt>
<trkpt lat="46.26321726" lon="7.37175157"><ele></ele><time>2014-5-15T4:44:40Z</time></trkpt>
<trkpt lat="46.26301300" lon="7.37182877"><ele></ele><time>2014-5-15T4:44:43Z</time></trkpt>
<trkpt lat="46.26276875" lon="7.37170287"><ele></ele><time>2014-5-15T4:44:46Z</time></trkpt>
<trkpt lat="46.26247027" lon="7.37156977"><ele></ele><time>2014-5-15T4:44:49Z</time></trkpt>
<trkpt lat="46.26224731" lon="7.37164588"><ele></ele><time>2014-5-15T4:44:52Z</time></trkpt>
<trkpt lat="46.26206928" lon="7.37188174"><ele></ele><time>2014-5-15T4:44:55Z</time></trkpt>
<trkpt lat="46.26197540" lon="7.37233445"><ele></ele><time>2014-5-15T4:44:58Z</time></trkpt>
<trkpt lat="46.26193550" lon="7.37302914"><ele></ele><time>2014-5-15T4:45:1Z</time></trkpt>
<trkpt lat="46.26184548" lon="7.37378377"><ele></ele><time>2014-5-15T4:45:4Z</time></trkpt>
<trkpt lat="46.26165303" lon="7.37449463"><ele></ele><time>2014-5-15T4:45:7Z</time></trkpt>
<trkpt lat="46.26143385" lon="7.37524440"><ele></ele><time>2014-5-15T4:45:10Z</time></trkpt>
<trkpt lat="46.26139462" lon="7.37586734"><ele></ele><time>2014-5-15T4:45:13Z</time></trkpt>
<trkpt lat="46.26138305" lon="7.37666362"><ele></ele><time>2014-5-15T4:45:16Z</time></trkpt>
<trkpt lat="46.26126772" lon="7.37728673"><ele></ele><time>2014-5-15T4:45:19Z</time></trkpt>
<trkpt lat="46.26125565" lon="7.37734985"><ele></ele><time>2014-5-15T4:45:22Z</time></trkpt>
<trkpt lat="46.26123000" lon="7.37794622"><ele></ele><time>2014-5-15T4:45:25Z</time></trkpt>
<trkpt lat="46.26132346" lon="7.37853488"><ele></ele><time>2014-5-15T4:45:28Z</time></trkpt>
<trkpt lat="46.26154030" lon="7.37934298"><ele></ele><time>2014-5-15T4:45:31Z</time></trkpt>
<trkpt lat="46.26154147" lon="7.37995938"><ele></ele><time>2014-5-15T4:45:34Z</time></trkpt>
<trkpt lat="46.26155430" lon="7.38057478"><ele></ele><time>2014-5-15T4:45:37Z</time></trkpt>
<trkpt lat="46.26167675" lon="7.38112137"><ele></ele><time>2014-5-15T4:45:40Z</time></trkpt>
<trkpt lat="46.26187884" lon="7.38172981"><ele></ele><time>2014-5-15T4:45:43Z</time></trkpt>
<trkpt lat="46.26205998" lon="7.38229760"><ele></ele><time>2014-5-15T4:45:46Z</time></trkpt>
<trkpt lat="46.26231202" lon="7.38305138"><ele></ele><time>2014-5-15T4:45:49Z</time></trkpt>
<trkpt lat="46.26255409" lon="7.38378120"><ele></ele><time>2014-5-15T4:45:52Z</time></trkpt>
<trkpt lat="46.26268744" lon="7.38448528"><ele></ele><time>2014-5-15T4:45:55Z</time></trkpt>
<trkpt lat="46.26262902" lon="7.38507092"><ele></ele><time>2014-5-15T4:45:58Z</time></trkpt>
<trkpt lat="46.26248578" lon="7.38552857"><ele></ele><time>2014-5-15T4:46:1Z</time></trkpt>
<trkpt lat="46.26240841" lon="7.38563829"><ele></ele><time>2014-5-15T4:46:4Z</time></trkpt>
<trkpt lat="46.26238385" lon="7.38566260"><ele></ele><time>2014-5-15T4:46:7Z</time></trkpt>
<trkpt lat="46.26228251" lon="7.38587340"><ele></ele><time>2014-5-15T4:46:10Z</time></trkpt>
<trkpt lat="46.26183727" lon="7.38663708"><ele></ele><time>2014-5-15T4:46:13Z</time></trkpt>
<trkpt lat="46.26177340" lon="7.38694696"><ele></ele><time>2014-5-15T4:46:16Z</time></trkpt>
<trkpt lat="46.26175806" lon="7.38731149"><ele></ele><time>2014-5-15T4:46:19Z</time></trkpt>
<trkpt lat="46.26180424" lon="7.38771901"><ele></ele><time>2014-5-15T4:46:22Z</time></trkpt>
<trkpt lat="46.26173459" lon="7.38805454"><ele></ele><time>2014-5-15T4:46:25Z</time></trkpt>
<trkpt lat="46.26181791" lon="7.38847791"><ele></ele><time>2014-5-15T4:46:28Z</time></trkpt>
<trkpt lat="46.26198814" lon="7.38919725"><ele></ele><time>2014-5-15T4:46:31Z</time></trkpt>
<trkpt lat="46.26223549" lon="7.38997861"><ele></ele><time>2014-5-15T4:46:34Z</time></trkpt>
<trkpt lat="46.26238930" lon="7.39070406"><ele></ele><time>2014-5-15T4:46:37Z</time></trkpt>
<trkpt lat="46.26257261" lon="7.39148551"><ele></ele><time>2014-5-15T4:46:40Z</time></trkpt>
<trkpt lat="46.26295189" lon="7.39222940"><ele></ele><time>2014-5-15T4:46:43Z</time></trkpt>
<trkpt lat="46.26336671" lon="7.39303113"><ele></ele><time>2014-5-15T4:46:46Z</time></trkpt>
<trkpt lat="46.26339924" lon="7.39310950"><ele></ele><time>2014-5-15T4:46:49Z</time></trkpt>
<trkpt lat="46.26352362" lon="7.39371576"><ele></ele><time>2014-5-15T4:46:52Z</time></trkpt>
<trkpt lat="46.26370844" lon="7.39429386"><ele></ele><time>2014-5-15T4:46:55Z</time></trkpt>
<trkpt lat="46.26385069" lon="7.39453065"><ele></ele><time>2014-5-15T4:46:58Z</time></trkpt>
<trkpt lat="46.26421329" lon="7.39485461"><ele></ele><time>2014-5-15T4:47:1Z</time></trkpt>
<trkpt lat="46.26464403" lon="7.39511428"><ele></ele><time>2014-5-15T4:47:4Z</time></trkpt>
<trkpt lat="46.26496623" lon="7.39550354"><ele></ele><time>2014-5-15T4:47:7Z</time></trkpt>
<trkpt lat="46.26539346" lon="7.39592959"><ele></ele><time>2014-5-15T4:47:10Z</time></trkpt>
<trkpt lat="46.26570988" lon="7.39642345"><ele></ele><time>2014-5-15T4:47:13Z</time></trkpt>
<trkpt lat="46.26580275" lon="7.39667273"><ele></ele><time>2014-5-15T4:47:16Z</time></trkpt>
<trkpt lat="46.26603719" lon="7.39695998"><ele></ele><time>2014-5-15T4:47:19Z</time></trkpt>
<trkpt lat="46.26607935" lon="7.39698546"><ele></ele><time>2014-5-15T4:47:22Z</time></trkpt>
<trkpt lat="46.26627875" lon="7.39716416"><ele></ele><time>2014-5-15T4:47:25Z</time></trkpt>
<trkpt lat="46.26638881" lon="7.39728101"><ele></ele><time>2014-5-15T4:47:28Z</time></trkpt>
<trkpt lat="46.26674965" lon="7.39785148"><ele></ele><time>2014-5-15T4:47:31Z</time></trkpt>
<trkpt lat="46.26714729" lon="7.39853980"><ele></ele><time>2014-5-15T4:47:34Z</time></trkpt>
<trkpt lat="46.26752724" lon="7.39908462"><ele></ele><time>2014-5-15T4:47:37Z</time></trkpt>
<trkpt lat="46.26796804" lon="7.39965711"><ele></ele><time>2014-5-15T4:47:40Z</time></trkpt>
<trkpt lat="46.26825546" lon="7.40010805"><ele></ele><time>2014-5-15T4:47:43Z</time></trkpt>
<trkpt lat="46.26848504" lon="7.40049278"><ele></ele><time>2014-5-15T4:47:46Z</time></trkpt>
<trkpt lat="46.26871864" lon="7.40055271"><ele></ele><time>2014-5-15T4:47:49Z</time></trkpt>
<trkpt lat="46.26893406" lon="7.40042883"><ele></ele><time>2014-5-15T4:47:52Z</time></trkpt>
<trkpt lat="46.26921586" lon="7.40016262"><ele></ele><time>2014-5-15T4:47:55Z</time></trkpt>
<trkpt lat="46.26950394" lon="7.39992768"><ele></ele><time>2014-5-15T4:47:58Z</time></trkpt>
<trkpt lat="46.26974400" lon="7.39995257"><ele></ele><time>2014-5-15T4:48:1Z</time></trkpt>
<trkpt lat="46.26986981" lon="7.40018064"><ele></ele><time>2014-5-15T4:48:4Z</time></trkpt>
<trkpt lat="46.27005606" lon="7.40067668"><ele></ele><time>2014-5-15T4:48:7Z</time></trkpt>
<trkpt lat="46.27030752" lon="7.40129393"><ele></ele><time>2014-5-15T4:48:10Z</time></trkpt>
<trkpt lat="46.27058621" lon="7.40188720"><ele></ele><time>2014-5-15T4:48:13Z</time></trkpt>
<trkpt lat="46.27078872" lon="7.40225709"><ele></ele><time>2014-5-15T4:48:16Z</time></trkpt>
<trkpt lat="46.27104471" lon="7.40236631"><ele></ele><time>2014-5-15T4:48:19Z</time></trkpt>
<trkpt lat="46.27138568" lon="7.40229892"><ele></ele><time>2014-5-15T4:48:22Z</time></trkpt>
<trkpt lat="46.27169279" lon="7.40214746"><ele></ele><time>2014-5-15T4:48:25Z</time></trkpt>
<trkpt lat="46.27199220" lon="7.40212348"><ele></ele><time>2014-5-15T4:48:28Z</time></trkpt>
<trkpt lat="46.27230015" lon="7.40217436"><ele></ele><time>2014-5-15T4:48:31Z</time></trkpt>
<trkpt lat="46.27259133" lon="7.40225064"><ele></ele><time>2014-5-15T4:48:34Z</time></trkpt>
<trkpt lat="46.27292309" lon="7.40231032"><ele></ele><time>2014-5-15T4:48:37Z</time></trkpt>
<trkpt lat="46.27314429" lon="7.40223521"><ele></ele><time>2014-5-15T4:48:40Z</time></trkpt>
<trkpt lat="46.27346607" lon="7.40208484"><ele></ele><time>2014-5-15T4:48:43Z</time></trkpt>
<trkpt lat="46.27380160" lon="7.40210806"><ele></ele><time>2014-5-15T4:48:46Z</time></trkpt>
<trkpt lat="46.27408323" lon="7.40230168"><ele></ele><time>2014-5-15T4:48:49Z</time></trkpt>
<trkpt lat="46.27442270" lon="7.40258801"><ele></ele><time>2014-5-15T4:48:52Z</time></trkpt>
<trkpt lat="46.27470466" lon="7.40283066"><ele></ele><time>2014-5-15T4:48:55Z</time></trkpt>
<trkpt lat="46.27499199" lon="7.40309352"><ele></ele><time>2014-5-15T4:48:58Z</time></trkpt>
<trkpt lat="46.27525502" lon="7.40331983"><ele></ele><time>2014-5-15T4:49:1Z</time></trkpt>
<trkpt lat="46.27549659" lon="7.40356785"><ele></ele><time>2014-5-15T4:49:4Z</time></trkpt>
<trkpt lat="46.27575374" lon="7.40387245"><ele></ele><time>2014-5-15T4:49:7Z</time></trkpt>
<trkpt lat="46.27598936" lon="7.40426045"><ele></ele><time>2014-5-15T4:49:10Z</time></trkpt>
<trkpt lat="46.27609589" lon="7.40456874"><ele></ele><time>2014-5-15T4:49:13Z</time></trkpt>
<trkpt lat="46.27618432" lon="7.40452012"><ele></ele><time>2014-5-15T4:49:16Z</time></trkpt>
<trkpt lat="46.27614174" lon="7.40495539"><ele></ele><time>2014-5-15T4:49:19Z</time></trkpt>
<trkpt lat="46.27616043" lon="7.40507986"><ele></ele><time>2014-5-15T4:49:22Z</time></trkpt>
<trkpt lat="46.27626722" lon="7.40533099"><ele></ele><time>2014-5-15T4:49:25Z</time></trkpt>
<trkpt lat="46.27633897" lon="7.40545110"><ele></ele><time>2014-5-15T4:49:28Z</time></trkpt>
<trkpt lat="46.27650828" lon="7.40570515"><ele></ele><time>2014-5-15T4:49:31Z</time></trkpt>
<trkpt lat="46.27656737" lon="7.40585427"><ele></ele><time>2014-5-15T4:49:34Z</time></trkpt>
<trkpt lat="46.27676410" lon="7.40675876"><ele></ele><time>2014-5-15T4:49:37Z</time></trkpt>
<trkpt lat="46.27689695" lon="7.40739620"><ele></ele><time>2014-5-15T4:49:40Z</time></trkpt>
<trkpt lat="46.27721068" lon="7.40819911"><ele></ele><time>2014-5-15T4:49:43Z</time></trkpt>
<trkpt lat="46.27761855" lon="7.40906797"><ele></ele><time>2014-5-15T4:49:46Z</time></trkpt>
<trkpt lat="46.27786472" lon="7.40963761"><ele></ele><time>2014-5-15T4:49:49Z</time></trkpt>
<trkpt lat="46.27812800" lon="7.40998948"><ele></ele><time>2014-5-15T4:49:52Z</time></trkpt>
<trkpt lat="46.27844073" lon="7.41035996"><ele></ele><time>2014-5-15T4:49:55Z</time></trkpt>
<trkpt lat="46.27858800" lon="7.41054109"><ele></ele><time>2014-5-15T4:49:58Z</time></trkpt>
<trkpt lat="46.27881850" lon="7.41078601"><ele></ele><time>2014-5-15T4:50:1Z</time></trkpt>
<trkpt lat="46.27908798" lon="7.41102917"><ele></ele><time>2014-5-15T4:50:4Z</time></trkpt>
<trkpt lat="46.27932955" lon="7.41124400"><ele></ele><time>2014-5-15T4:50:7Z</time></trkpt>
<trkpt lat="46.27962031" lon="7.41154868"><ele></ele><time>2014-5-15T4:50:10Z</time></trkpt>
<trkpt lat="46.27987613" lon="7.41183266"><ele></ele><time>2014-5-15T4:50:13Z</time></trkpt>
<trkpt lat="46.28009297" lon="7.41200734"><ele></ele><time>2014-5-15T4:50:16Z</time></trkpt>
<trkpt lat="46.28033638" lon="7.41206031"><ele></ele><time>2014-5-15T4:50:19Z</time></trkpt>
<trkpt lat="46.28038013" lon="7.41189812"><ele></ele><time>2014-5-15T4:50:22Z</time></trkpt>
<trkpt lat="46.28093418" lon="7.41179075"><ele></ele><time>2014-5-15T4:50:25Z</time></trkpt>
<trkpt lat="46.28122612" lon="7.41169461"><ele></ele><time>2014-5-15T4:50:28Z</time></trkpt>
<trkpt lat="46.28156433" lon="7.41156922"><ele></ele><time>2014-5-15T4:50:31Z</time></trkpt>
<trkpt lat="46.28180162" lon="7.41154818"><ele></ele><time>2014-5-15T4:50:34Z</time></trkpt>
<trkpt lat="46.28206817" lon="7.41165974"><ele></ele><time>2014-5-15T4:50:37Z</time></trkpt>
<trkpt lat="46.28236136" lon="7.41176477"><ele></ele><time>2014-5-15T4:50:40Z</time></trkpt>
<trkpt lat="46.28267527" lon="7.41172135"><ele></ele><time>2014-5-15T4:50:43Z</time></trkpt>
<trkpt lat="46.28295564" lon="7.41155715"><ele></ele><time>2014-5-15T4:50:46Z</time></trkpt>
<trkpt lat="46.28323065" lon="7.41148364"><ele></ele><time>2014-5-15T4:50:49Z</time></trkpt>
<trkpt lat="46.28330693" lon="7.41157743"><ele></ele><time>2014-5-15T4:50:52Z</time></trkpt>
<trkpt lat="46.28331455" lon="7.41190215"><ele></ele><time>2014-5-15T4:50:55Z</time></trkpt>
<trkpt lat="46.28337918" lon="7.41228042"><ele></ele><time>2014-5-15T4:50:58Z</time></trkpt>
<trkpt lat="46.28354338" lon="7.41269700"><ele></ele><time>2014-5-15T4:51:1Z</time></trkpt>
<trkpt lat="46.28365620" lon="7.41287872"><ele></ele><time>2014-5-15T4:51:4Z</time></trkpt>
<trkpt lat="46.28366651" lon="7.41290160"><ele></ele><time>2014-5-15T4:51:7Z</time></trkpt>
<trkpt lat="46.28368034" lon="7.41300135"><ele></ele><time>2014-5-15T4:51:10Z</time></trkpt>
<trkpt lat="46.28368135" lon="7.41299481"><ele></ele><time>2014-5-15T4:51:13Z</time></trkpt>
<trkpt lat="46.28371479" lon="7.41296824"><ele></ele><time>2014-5-15T4:51:16Z</time></trkpt>
<trkpt lat="46.28373843" lon="7.41295072"><ele></ele><time>2014-5-15T4:51:19Z</time></trkpt>
<trkpt lat="46.28383448" lon="7.41317703"><ele></ele><time>2014-5-15T4:51:22Z</time></trkpt>
<trkpt lat="46.28390481" lon="7.41336211"><ele></ele><time>2014-5-15T4:51:25Z</time></trkpt>
<trkpt lat="46.28397237" lon="7.41336973"><ele></ele><time>2014-5-15T4:51:28Z</time></trkpt>
<trkpt lat="46.28394471" lon="7.41340796"><ele></ele><time>2014-5-15T4:51:31Z</time></trkpt>
<trkpt lat="46.28396750" lon="7.41336931"><ele></ele><time>2014-5-15T4:51:34Z</time></trkpt>
<trkpt lat="46.28397647" lon="7.41338792"><ele></ele><time>2014-5-15T4:51:37Z</time></trkpt>
<trkpt lat="46.28434813" lon="7.41456751"><ele></ele><time>2014-5-15T4:51:40Z</time></trkpt>
<trkpt lat="46.28451828" lon="7.41488652"><ele></ele><time>2014-5-15T4:51:43Z</time></trkpt>
<trkpt lat="46.28467117" lon="7.41504813"><ele></ele><time>2014-5-15T4:51:46Z</time></trkpt>
<trkpt lat="46.28472305" lon="7.41508341"><ele></ele><time>2014-5-15T4:51:49Z</time></trkpt>
<trkpt lat="46.28487158" lon="7.41513714"><ele></ele><time>2014-5-15T4:51:52Z</time></trkpt>
<trkpt lat="46.28491541" lon="7.41515273"><ele></ele><time>2014-5-15T4:51:55Z</time></trkpt>
<trkpt lat="46.28560650" lon="7.41550301"><ele></ele><time>2014-5-15T4:51:58Z</time></trkpt>
<trkpt lat="46.28629843" lon="7.41578288"><ele></ele><time>2014-5-15T4:52:1Z</time></trkpt>
<trkpt lat="46.28710904" lon="7.41607122"><ele></ele><time>2014-5-15T4:52:4Z</time></trkpt>
<trkpt lat="46.28771044" lon="7.41628018"><ele></ele><time>2014-5-15T4:52:7Z</time></trkpt>
<trkpt lat="46.28779996" lon="7.41633047"><ele></ele><time>2014-5-15T4:52:10Z</time></trkpt>
<trkpt lat="46.28798864" lon="7.41654254"><ele></ele><time>2014-5-15T4:52:13Z</time></trkpt>
<trkpt lat="46.28831008" lon="7.41719180"><ele></ele><time>2014-5-15T4:52:16Z</time></trkpt>
<trkpt lat="46.28862516" lon="7.41783603"><ele></ele><time>2014-5-15T4:52:19Z</time></trkpt>
<trkpt lat="46.28887762" lon="7.41844179"><ele></ele><time>2014-5-15T4:52:22Z</time></trkpt>
<trkpt lat="46.28894895" lon="7.41891772"><ele></ele><time>2014-5-15T4:52:25Z</time></trkpt>
<trkpt lat="46.28899698" lon="7.41910094"><ele></ele><time>2014-5-15T4:52:28Z</time></trkpt>
<trkpt lat="46.28910427" lon="7.41930471"><ele></ele><time>2014-5-15T4:52:31Z</time></trkpt>
<trkpt lat="46.28928733" lon="7.41970737"><ele></ele><time>2014-5-15T4:52:34Z</time></trkpt>
<trkpt lat="46.28950057" lon="7.41992380"><ele></ele><time>2014-5-15T4:52:37Z</time></trkpt>
<trkpt lat="46.28958623" lon="7.41994726"><ele></ele><time>2014-5-15T4:52:40Z</time></trkpt>
<trkpt lat="46.29008520" lon="7.42001206"><ele></ele><time>2014-5-15T4:52:43Z</time></trkpt>
<trkpt lat="46.29021697" lon="7.42003762"><ele></ele><time>2014-5-15T4:52:46Z</time></trkpt>
<trkpt lat="46.29056607" lon="7.42019855"><ele></ele><time>2014-5-15T4:52:49Z</time></trkpt>
<trkpt lat="46.29091468" lon="7.42035345"><ele></ele><time>2014-5-15T4:52:52Z</time></trkpt>
<trkpt lat="46.29099179" lon="7.42036234"><ele></ele><time>2014-5-15T4:52:55Z</time></trkpt>
<trkpt lat="46.29104946" lon="7.42032965"><ele></ele><time>2014-5-15T4:52:58Z</time></trkpt>
<trkpt lat="46.29105868" lon="7.42032755"><ele></ele><time>2014-5-15T4:53:1Z</time></trkpt>
<trkpt lat="46.29107561" lon="7.42037759"><ele></ele><time>2014-5-15T4:53:4Z</time></trkpt>
<trkpt lat="46.29102255" lon="7.42029889"><ele></ele><time>2014-5-15T4:53:7Z</time></trkpt>
<trkpt lat="46.29076380" lon="7.42008791"><ele></ele><time>2014-5-15T4:53:10Z</time></trkpt>
<trkpt lat="46.29053364" lon="7.41988398"><ele></ele><time>2014-5-15T4:53:13Z</time></trkpt>
<trkpt lat="46.29030338" lon="7.41942742"><ele></ele><time>2014-5-15T4:53:16Z</time></trkpt>
<trkpt lat="46.29011965" lon="7.41904755"><ele></ele><time>2014-5-15T4:53:19Z</time></trkpt>
<trkpt lat="46.28994212" lon="7.41880406"><ele></ele><time>2014-5-15T4:53:22Z</time></trkpt>
<trkpt lat="46.28968505" lon="7.41866844"><ele></ele><time>2014-5-15T4:53:25Z</time></trkpt>
<trkpt lat="46.28950132" lon="7.41845881"><ele></ele><time>2014-5-15T4:53:28Z</time></trkpt>
<trkpt lat="46.28940535" lon="7.41803770"><ele></ele><time>2014-5-15T4:53:31Z</time></trkpt>
<trkpt lat="46.28927107" lon="7.41766227"><ele></ele><time>2014-5-15T4:53:34Z</time></trkpt>
<trkpt lat="46.28916906" lon="7.41731250"><ele></ele><time>2014-5-15T4:53:37Z</time></trkpt>
<trkpt lat="46.28907485" lon="7.41690086"><ele></ele><time>2014-5-15T4:53:40Z</time></trkpt>
<trkpt lat="46.28900511" lon="7.41659383"><ele></ele><time>2014-5-15T4:53:43Z</time></trkpt>
<trkpt lat="46.28896832" lon="7.41629611"><ele></ele><time>2014-5-15T4:53:46Z</time></trkpt>
<trkpt lat="46.28896320" lon="7.41595379"><ele></ele><time>2014-5-15T4:53:49Z</time></trkpt>
<trkpt lat="46.28896438" lon="7.41560359"><ele></ele><time>2014-5-15T4:53:52Z</time></trkpt>
<trkpt lat="46.28894133" lon="7.41524141"><ele></ele><time>2014-5-15T4:53:55Z</time></trkpt>
<trkpt lat="46.28889908" lon="7.41501686"><ele></ele><time>2014-5-15T4:53:58Z</time></trkpt>
<trkpt lat="46.28887360" lon="7.41468033"><ele></ele><time>2014-5-15T4:54:1Z</time></trkpt>
<trkpt lat="46.28887217" lon="7.41437531"><ele></ele><time>2014-5-15T4:54:4Z</time></trkpt>
<trkpt lat="46.28881903" lon="7.41399360"><ele></ele><time>2014-5-15T4:54:7Z</time></trkpt>
<trkpt lat="46.28880051" lon="7.41366905"><ele></ele><time>2014-5-15T4:54:10Z</time></trkpt>
<trkpt lat="46.28877872" lon="7.41348716"><ele></ele><time>2014-5-15T4:54:13Z</time></trkpt>
<trkpt lat="46.28872817" lon="7.41309850"><ele></ele><time>2014-5-15T4:54:16Z</time></trkpt>
<trkpt lat="46.28871946" lon="7.41302004"><ele></ele><time>2014-5-15T4:54:19Z</time></trkpt>
<trkpt lat="46.28871376" lon="7.41299272"><ele></ele><time>2014-5-15T4:54:22Z</time></trkpt>
<trkpt lat="46.29087696" lon="7.42028941"><ele></ele><time>2014-5-15T4:54:25Z</time></trkpt>
<trkpt lat="46.29090210" lon="7.42040458"><ele></ele><time>2014-5-15T4:54:28Z</time></trkpt>
<trkpt lat="46.29104133" lon="7.42052595"><ele></ele><time>2014-5-15T4:54:31Z</time></trkpt>
<trkpt lat="46.29135984" lon="7.42076416"><ele></ele><time>2014-5-15T4:54:34Z</time></trkpt>
<trkpt lat="46.29175949" lon="7.42112936"><ele></ele><time>2014-5-15T4:54:37Z</time></trkpt>
<trkpt lat="46.29197071" lon="7.42115577"><ele></ele><time>2014-5-15T4:54:40Z</time></trkpt>
<trkpt lat="46.29233323" lon="7.42123615"><ele></ele><time>2014-5-15T4:54:43Z</time></trkpt>
<trkpt lat="46.29271620" lon="7.42129399"><ele></ele><time>2014-5-15T4:54:46Z</time></trkpt>
<trkpt lat="46.29312071" lon="7.42134738"><ele></ele><time>2014-5-15T4:54:49Z</time></trkpt>
<trkpt lat="46.29344962" lon="7.42138686"><ele></ele><time>2014-5-15T4:54:52Z</time></trkpt>
<trkpt lat="46.29383468" lon="7.42141938"><ele></ele><time>2014-5-15T4:54:55Z</time></trkpt>
<trkpt lat="46.29440616" lon="7.42153932"><ele></ele><time>2014-5-15T4:54:58Z</time></trkpt>
<trkpt lat="46.29482986" lon="7.42144142"><ele></ele><time>2014-5-15T4:55:1Z</time></trkpt>
<trkpt lat="46.29496515" lon="7.42137831"><ele></ele><time>2014-5-15T4:55:4Z</time></trkpt>
<trkpt lat="46.29490086" lon="7.42125166"><ele></ele><time>2014-5-15T4:55:7Z</time></trkpt>
<trkpt lat="46.29483665" lon="7.42126758"><ele></ele><time>2014-5-15T4:55:10Z</time></trkpt>
<trkpt lat="46.29459308" lon="7.42125082"><ele></ele><time>2014-5-15T4:55:13Z</time></trkpt>
<trkpt lat="46.29436458" lon="7.42111713"><ele></ele><time>2014-5-15T4:55:16Z</time></trkpt>
<trkpt lat="46.29415093" lon="7.42093281"><ele></ele><time>2014-5-15T4:55:19Z</time></trkpt>
<trkpt lat="46.29267320" lon="7.42002270"><ele></ele><time>2014-5-15T4:55:22Z</time></trkpt>
<trkpt lat="46.29203903" lon="7.41958567"><ele></ele><time>2014-5-15T4:55:25Z</time></trkpt>
<trkpt lat="46.29159990" lon="7.41917563"><ele></ele><time>2014-5-15T4:55:28Z</time></trkpt>
<trkpt lat="46.29148892" lon="7.41891487"><ele></ele><time>2014-5-15T4:55:31Z</time></trkpt>
<trkpt lat="46.29120377" lon="7.41838521"><ele></ele><time>2014-5-15T4:55:34Z</time></trkpt>
<trkpt lat="46.29100931" lon="7.41813392"><ele></ele><time>2014-5-15T4:55:37Z</time></trkpt>
<trkpt lat="46.29044110" lon="7.41745281"><ele></ele><time>2014-5-15T4:55:40Z</time></trkpt>
<trkpt lat="46.29039751" lon="7.41716271"><ele></ele><time>2014-5-15T4:55:43Z</time></trkpt>
<trkpt lat="46.28971933" lon="7.41627683"><ele></ele><time>2014-5-15T4:55:46Z</time></trkpt>
<trkpt lat="46.28957701" lon="7.41606041"><ele></ele><time>2014-5-15T4:55:49Z</time></trkpt>
<trkpt lat="46.28955136" lon="7.41556169"><ele></ele><time>2014-5-15T4:55:52Z</time></trkpt>
<trkpt lat="46.28950685" lon="7.41542079"><ele></ele><time>2014-5-15T4:55:55Z</time></trkpt>
<trkpt lat="46.28925489" lon="7.41493271"><ele></ele><time>2014-5-15T4:55:58Z</time></trkpt>
<trkpt lat="46.28916671" lon="7.41470371"><ele></ele><time>2014-5-15T4:56:1Z</time></trkpt>
<trkpt lat="46.28909186" lon="7.41442342"><ele></ele><time>2014-5-15T4:56:4Z</time></trkpt>
<trkpt lat="46.28903864" lon="7.41418378"><ele></ele><time>2014-5-15T4:56:7Z</time></trkpt>
<trkpt lat="46.28885717" lon="7.41334794"><ele></ele><time>2014-5-15T4:56:10Z</time></trkpt>
<trkpt lat="46.28875986" lon="7.41294066"><ele></ele><time>2014-5-15T4:56:13Z</time></trkpt>
<trkpt lat="46.28866640" lon="7.41294494"><ele></ele><time>2014-5-15T4:56:16Z</time></trkpt>
<trkpt lat="46.28873404" lon="7.41353913"><ele></ele><time>2014-5-15T4:56:19Z</time></trkpt>
<trkpt lat="46.28872097" lon="7.41371524"><ele></ele><time>2014-5-15T4:56:22Z</time></trkpt>
<trkpt lat="46.28867663" lon="7.41358674"><ele></ele><time>2014-5-15T4:56:25Z</time></trkpt>
<trkpt lat="46.28851536" lon="7.41290898"><ele></ele><time>2014-5-15T4:56:28Z</time></trkpt>
<trkpt lat="46.28846473" lon="7.41276070"><ele></ele><time>2014-5-15T4:56:31Z</time></trkpt>
<trkpt lat="46.28823859" lon="7.41269315"><ele></ele><time>2014-5-15T4:56:34Z</time></trkpt>
<trkpt lat="46.28802476" lon="7.41276029"><ele></ele><time>2014-5-15T4:56:37Z</time></trkpt>
<trkpt lat="46.28775286" lon="7.41268359"><ele></ele><time>2014-5-15T4:56:40Z</time></trkpt>
<trkpt lat="46.28753828" lon="7.41232418"><ele></ele><time>2014-5-15T4:56:43Z</time></trkpt>
<trkpt lat="46.28724282" lon="7.41178446"><ele></ele><time>2014-5-15T4:56:46Z</time></trkpt>
<trkpt lat="46.28710234" lon="7.41142019"><ele></ele><time>2014-5-15T4:56:49Z</time></trkpt>
<trkpt lat="46.28685105" lon="7.41099489"><ele></ele><time>2014-5-15T4:56:52Z</time></trkpt>
<trkpt lat="46.28663186" lon="7.41055408"><ele></ele><time>2014-5-15T4:56:55Z</time></trkpt>
<trkpt lat="46.28634176" lon="7.40993508"><ele></ele><time>2014-5-15T4:56:58Z</time></trkpt>
<trkpt lat="46.28612014" lon="7.40942856"><ele></ele><time>2014-5-15T4:57:1Z</time></trkpt>
<trkpt lat="46.28583399" lon="7.40885717"><ele></ele><time>2014-5-15T4:57:4Z</time></trkpt>
<trkpt lat="46.28571203" lon="7.40858828"><ele></ele><time>2014-5-15T4:57:7Z</time></trkpt>
<trkpt lat="46.28505237" lon="7.40758480"><ele></ele><time>2014-5-15T4:57:10Z</time></trkpt>
<trkpt lat="46.28433765" lon="7.40762101"><ele></ele><time>2014-5-15T4:57:13Z</time></trkpt>
<trkpt lat="46.28414302" lon="7.40764481"><ele></ele><time>2014-5-15T4:57:16Z</time></trkpt>
<trkpt lat="46.28383758" lon="7.40749176"><ele></ele><time>2014-5-15T4:57:19Z</time></trkpt>
<trkpt lat="46.28351647" lon="7.40709655"><ele></ele><time>2014-5-15T4:57:22Z</time></trkpt>
<trkpt lat="46.28323962" lon="7.40671417"><ele></ele><time>2014-5-15T4:57:25Z</time></trkpt>
<trkpt lat="46.28312831" lon="7.40648132"><ele></ele><time>2014-5-15T4:57:28Z</time></trkpt>
<trkpt lat="46.28303946" lon="7.40629625"><ele></ele><time>2014-5-15T4:57:31Z</time></trkpt>
<trkpt lat="46.28298062" lon="7.40594991"><ele></ele><time>2014-5-15T4:57:34Z</time></trkpt>
<trkpt lat="46.28297836" lon="7.40571890"><ele></ele><time>2014-5-15T4:57:37Z</time></trkpt>
<trkpt lat="46.28295807" lon="7.40543593"><ele></ele><time>2014-5-15T4:57:40Z</time></trkpt>
<trkpt lat="46.28290887" lon="7.40521515"><ele></ele><time>2014-5-15T4:57:43Z</time></trkpt>
<trkpt lat="46.28289320" lon="7.40499864"><ele></ele><time>2014-5-15T4:57:46Z</time></trkpt>
<trkpt lat="46.28289253" lon="7.40477610"><ele></ele><time>2014-5-15T4:57:49Z</time></trkpt>
<trkpt lat="46.28289018" lon="7.40453378"><ele></ele><time>2014-5-15T4:57:52Z</time></trkpt>
<trkpt lat="46.28286302" lon="7.40385686"><ele></ele><time>2014-5-15T4:57:55Z</time></trkpt>
<trkpt lat="46.28275615" lon="7.40357967"><ele></ele><time>2014-5-15T4:57:58Z</time></trkpt>
<trkpt lat="46.28260318" lon="7.40331757"><ele></ele><time>2014-5-15T4:58:1Z</time></trkpt>
<trkpt lat="46.28252188" lon="7.40317516"><ele></ele><time>2014-5-15T4:58:4Z</time></trkpt>
<trkpt lat="46.28252649" lon="7.40311716"><ele></ele><time>2014-5-15T4:58:7Z</time></trkpt>
<trkpt lat="46.28337624" lon="7.40300492"><ele></ele><time>2014-5-15T4:58:10Z</time></trkpt>
<trkpt lat="46.28402081" lon="7.40395443"><ele></ele><time>2014-5-15T4:58:13Z</time></trkpt>
<trkpt lat="46.28437612" lon="7.40435558"><ele></ele><time>2014-5-15T4:58:16Z</time></trkpt>
<trkpt lat="46.28536292" lon="7.40441618"><ele></ele><time>2014-5-15T4:58:19Z</time></trkpt>
<trkpt lat="46.28529319" lon="7.40415970"><ele></ele><time>2014-5-15T4:58:22Z</time></trkpt>
<trkpt lat="46.28511574" lon="7.40371135"><ele></ele><time>2014-5-15T4:58:25Z</time></trkpt>
<trkpt lat="46.28510962" lon="7.40347473"><ele></ele><time>2014-5-15T4:58:28Z</time></trkpt>
<trkpt lat="46.28542135" lon="7.40367698"><ele></ele><time>2014-5-15T4:58:31Z</time></trkpt>
<trkpt lat="46.28577297" lon="7.40404386"><ele></ele><time>2014-5-15T4:58:34Z</time></trkpt>
<trkpt lat="46.28613649" lon="7.40415735"><ele></ele><time>2014-5-15T4:58:37Z</time></trkpt>
<trkpt lat="46.28731574" lon="7.40432943"><ele></ele><time>2014-5-15T4:58:40Z</time></trkpt>
<trkpt lat="46.28759578" lon="7.40439414"><ele></ele><time>2014-5-15T4:58:43Z</time></trkpt>
<trkpt lat="46.28769754" lon="7.40463177"><ele></ele><time>2014-5-15T4:58:46Z</time></trkpt>
<trkpt lat="46.28821939" lon="7.40493025"><ele></ele><time>2014-5-15T4:58:49Z</time></trkpt>
<trkpt lat="46.28817790" lon="7.40481952"><ele></ele><time>2014-5-15T4:58:52Z</time></trkpt>
<trkpt lat="46.28811026" lon="7.40477828"><ele></ele><time>2014-5-15T4:58:55Z</time></trkpt>
<trkpt lat="46.28803776" lon="7.40461618"><ele></ele><time>2014-5-15T4:58:58Z</time></trkpt>
<trkpt lat="46.28800297" lon="7.40439892"><ele></ele><time>2014-5-15T4:59:1Z</time></trkpt>
<trkpt lat="46.28810741" lon="7.40383524"><ele></ele><time>2014-5-15T4:59:4Z</time></trkpt>
<trkpt lat="46.28795788" lon="7.40362083"><ele></ele><time>2014-5-15T4:59:7Z</time></trkpt>
<trkpt lat="46.28761321" lon="7.40258105"><ele></ele><time>2014-5-15T4:59:10Z</time></trkpt>
<trkpt lat="46.28751439" lon="7.40223505"><ele></ele><time>2014-5-15T4:59:13Z</time></trkpt>
<trkpt lat="46.28739579" lon="7.40178519"><ele></ele><time>2014-5-15T4:59:16Z</time></trkpt>
<trkpt lat="46.28725606" lon="7.40136861"><ele></ele><time>2014-5-15T4:59:19Z</time></trkpt>
<trkpt lat="46.28713528" lon="7.40102403"><ele></ele><time>2014-5-15T4:59:22Z</time></trkpt>
<trkpt lat="46.28710913" lon="7.40084792"><ele></ele><time>2014-5-15T4:59:25Z</time></trkpt>
<trkpt lat="46.28725531" lon="7.40060158"><ele></ele><time>2014-5-15T4:59:28Z</time></trkpt>
<trkpt lat="46.28695289" lon="7.40049806"><ele></ele><time>2014-5-15T4:59:31Z</time></trkpt>
<trkpt lat="46.28683831" lon="7.40030754"><ele></ele><time>2014-5-15T4:59:34Z</time></trkpt>
<trkpt lat="46.28660244" lon="7.39988233"><ele></ele><time>2014-5-15T4:59:37Z</time></trkpt>
<trkpt lat="46.28639733" lon="7.39964730"><ele></ele><time>2014-5-15T4:59:40Z</time></trkpt>
<trkpt lat="46.28631603" lon="7.39952702"><ele></ele><time>2014-5-15T4:59:43Z</time></trkpt>
<trkpt lat="46.28638845" lon="7.39955912"><ele></ele><time>2014-5-15T4:59:46Z</time></trkpt>
<trkpt lat="46.28647679" lon="7.39961402"><ele></ele><time>2014-5-15T4:59:49Z</time></trkpt>
<trkpt lat="46.28680788" lon="7.39945452"><ele></ele><time>2014-5-15T4:59:52Z</time></trkpt>
<trkpt lat="46.28748631" lon="7.39974202"><ele></ele><time>2014-5-15T4:59:55Z</time></trkpt>
<trkpt lat="46.28728707" lon="7.39912285"><ele></ele><time>2014-5-15T4:59:58Z</time></trkpt>
<trkpt lat="46.28668643" lon="7.39770982"><ele></ele><time>2014-5-15T5:0:1Z</time></trkpt>
<trkpt lat="46.28648853" lon="7.39703349"><ele></ele><time>2014-5-15T5:0:4Z</time></trkpt>
<trkpt lat="46.28629331" lon="7.39661255"><ele></ele><time>2014-5-15T5:0:7Z</time></trkpt>
<trkpt lat="46.28608997" lon="7.39631977"><ele></ele><time>2014-5-15T5:0:10Z</time></trkpt>
<trkpt lat="46.28583969" lon="7.39607368"><ele></ele><time>2014-5-15T5:0:13Z</time></trkpt>
<trkpt lat="46.28565101" lon="7.39592993"><ele></ele><time>2014-5-15T5:0:16Z</time></trkpt>
<trkpt lat="46.28545194" lon="7.39572675"><ele></ele><time>2014-5-15T5:0:19Z</time></trkpt>
<trkpt lat="46.28534348" lon="7.39553195"><ele></ele><time>2014-5-15T5:0:22Z</time></trkpt>
<trkpt lat="46.28508062" lon="7.39517413"><ele></ele><time>2014-5-15T5:0:25Z</time></trkpt>
<trkpt lat="46.28487728" lon="7.39513180"><ele></ele><time>2014-5-15T5:0:28Z</time></trkpt>
<trkpt lat="46.28475540" lon="7.39502845"><ele></ele><time>2014-5-15T5:0:31Z</time></trkpt>
<trkpt lat="46.28490158" lon="7.39469049"><ele></ele><time>2014-5-15T5:0:34Z</time></trkpt>
<trkpt lat="46.28504843" lon="7.39444457"><ele></ele><time>2014-5-15T5:0:37Z</time></trkpt>
<trkpt lat="46.28521197" lon="7.39419965"><ele></ele><time>2014-5-15T5:0:40Z</time></trkpt>
<trkpt lat="46.28540441" lon="7.39415280"><ele></ele><time>2014-5-15T5:0:43Z</time></trkpt>
<trkpt lat="46.28566107" lon="7.39416009"><ele></ele><time>2014-5-15T5:0:46Z</time></trkpt>
<trkpt lat="46.28594387" lon="7.39419621"><ele></ele><time>2014-5-15T5:0:49Z</time></trkpt>
<trkpt lat="46.28612685" lon="7.39424106"><ele></ele><time>2014-5-15T5:0:52Z</time></trkpt>
<trkpt lat="46.28631913" lon="7.39440107"><ele></ele><time>2014-5-15T5:0:55Z</time></trkpt>
<trkpt lat="46.28647135" lon="7.39459997"><ele></ele><time>2014-5-15T5:0:58Z</time></trkpt>
<trkpt lat="46.28663488" lon="7.39476250"><ele></ele><time>2014-5-15T5:1:1Z</time></trkpt>
<trkpt lat="46.28681475" lon="7.39495897"><ele></ele><time>2014-5-15T5:1:4Z</time></trkpt>
<trkpt lat="46.28691760" lon="7.39508243"><ele></ele><time>2014-5-15T5:1:7Z</time></trkpt>
<trkpt lat="46.28711105" lon="7.39533674"><ele></ele><time>2014-5-15T5:1:10Z</time></trkpt>
<trkpt lat="46.28739109" lon="7.39566481"><ele></ele><time>2014-5-15T5:1:13Z</time></trkpt>
<trkpt lat="46.28766191" lon="7.39575072"><ele></ele><time>2014-5-15T5:1:16Z</time></trkpt>
<trkpt lat="46.28769049" lon="7.39571770"><ele></ele><time>2014-5-15T5:1:19Z</time></trkpt>
<trkpt lat="46.29158590" lon="7.40143843"><ele></ele><time>2014-5-15T5:1:22Z</time></trkpt>
<trkpt lat="46.29188731" lon="7.40225038"><ele></ele><time>2014-5-15T5:1:25Z</time></trkpt>
<trkpt lat="46.29051444" lon="7.40305857"><ele></ele><time>2014-5-15T5:1:28Z</time></trkpt>
<trkpt lat="46.29056373" lon="7.40346383"><ele></ele><time>2014-5-15T5:1:31Z</time></trkpt>
<trkpt lat="46.29059323" lon="7.40385745"><ele></ele><time>2014-5-15T5:1:34Z</time></trkpt>
<trkpt lat="46.29052240" lon="7.40491080"><ele></ele><time>2014-5-15T5:1:37Z</time></trkpt>
<trkpt lat="46.29072181" lon="7.40519520"><ele></ele><time>2014-5-15T5:1:40Z</time></trkpt>
<trkpt lat="46.29093957" lon="7.40551857"><ele></ele><time>2014-5-15T5:1:43Z</time></trkpt>
<trkpt lat="46.29121609" lon="7.40598511"><ele></ele><time>2014-5-15T5:1:46Z</time></trkpt>
<trkpt lat="46.29183325" lon="7.40714366"><ele></ele><time>2014-5-15T5:1:49Z</time></trkpt>
<trkpt lat="46.29207557" lon="7.40760198"><ele></ele><time>2014-5-15T5:1:52Z</time></trkpt>
<trkpt lat="46.29294167" lon="7.40858191"><ele></ele><time>2014-5-15T5:1:55Z</time></trkpt>
<trkpt lat="46.29301870" lon="7.40867394"><ele></ele><time>2014-5-15T5:1:58Z</time></trkpt>
<trkpt lat="46.29311836" lon="7.40884443"><ele></ele><time>2014-5-15T5:2:1Z</time></trkpt>
<trkpt lat="46.29322708" lon="7.40902179"><ele></ele><time>2014-5-15T5:2:4Z</time></trkpt>
<trkpt lat="46.29327955" lon="7.40928071"><ele></ele><time>2014-5-15T5:2:7Z</time></trkpt>
<trkpt lat="46.29346747" lon="7.40976568"><ele></ele><time>2014-5-15T5:2:10Z</time></trkpt>
<trkpt lat="46.29363578" lon="7.41009601"><ele></ele><time>2014-5-15T5:2:13Z</time></trkpt>
<trkpt lat="46.29415068" lon="7.41110821"><ele></ele><time>2014-5-15T5:2:16Z</time></trkpt>
<trkpt lat="46.29453021" lon="7.41171037"><ele></ele><time>2014-5-15T5:2:19Z</time></trkpt>
<trkpt lat="46.29462560" lon="7.41171691"><ele></ele><time>2014-5-15T5:2:22Z</time></trkpt>
<trkpt lat="46.29494084" lon="7.41187373"><ele></ele><time>2014-5-15T5:2:25Z</time></trkpt>
<trkpt lat="46.29505173" lon="7.41206828"><ele></ele><time>2014-5-15T5:2:28Z</time></trkpt>
<trkpt lat="46.29524787" lon="7.41239986"><ele></ele><time>2014-5-15T5:2:31Z</time></trkpt>
<trkpt lat="46.29532674" lon="7.41248871"><ele></ele><time>2014-5-15T5:2:34Z</time></trkpt>
<trkpt lat="46.29548340" lon="7.41277780"><ele></ele><time>2014-5-15T5:2:37Z</time></trkpt>
<trkpt lat="46.29623677" lon="7.41416291"><ele></ele><time>2014-5-15T5:2:40Z</time></trkpt>
<trkpt lat="46.29642846" lon="7.41425293"><ele></ele><time>2014-5-15T5:2:43Z</time></trkpt>
<trkpt lat="46.29733656" lon="7.41393040"><ele></ele><time>2014-5-15T5:2:46Z</time></trkpt>
<trkpt lat="46.29749070" lon="7.41370149"><ele></ele><time>2014-5-15T5:2:49Z</time></trkpt>
<trkpt lat="46.29769539" lon="7.41340100"><ele></ele><time>2014-5-15T5:2:52Z</time></trkpt>
<trkpt lat="46.29773327" lon="7.41336085"><ele></ele><time>2014-5-15T5:2:55Z</time></trkpt>
<trkpt lat="46.29795514" lon="7.41303463"><ele></ele><time>2014-5-15T5:2:58Z</time></trkpt>
<trkpt lat="46.29869627" lon="7.41538047"><ele></ele><time>2014-5-15T5:3:1Z</time></trkpt>
<trkpt lat="46.29880054" lon="7.41547493"><ele></ele><time>2014-5-15T5:3:4Z</time></trkpt>
<trkpt lat="46.29992086" lon="7.41536169"><ele></ele><time>2014-5-15T5:3:7Z</time></trkpt>
<trkpt lat="46.29989999" lon="7.41495098"><ele></ele><time>2014-5-15T5:3:10Z</time></trkpt>
<trkpt lat="46.29995934" lon="7.41460497"><ele></ele><time>2014-5-15T5:3:13Z</time></trkpt>
<trkpt lat="46.30016880" lon="7.41446483"><ele></ele><time>2014-5-15T5:3:16Z</time></trkpt>
<trkpt lat="46.30034490" lon="7.41444555"><ele></ele><time>2014-5-15T5:3:19Z</time></trkpt>
<trkpt lat="46.30050743" lon="7.41462895"><ele></ele><time>2014-5-15T5:3:22Z</time></trkpt>
<trkpt lat="46.30069083" lon="7.41482743"><ele></ele><time>2014-5-15T5:3:25Z</time></trkpt>
<trkpt lat="46.30087682" lon="7.41509221"><ele></ele><time>2014-5-15T5:3:28Z</time></trkpt>
<trkpt lat="46.30099945" lon="7.41525818"><ele></ele><time>2014-5-15T5:3:31Z</time></trkpt>
<trkpt lat="46.30116206" lon="7.41523043"><ele></ele><time>2014-5-15T5:3:34Z</time></trkpt>
<trkpt lat="46.30140974" lon="7.41497973"><ele></ele><time>2014-5-15T5:3:37Z</time></trkpt>
<trkpt lat="46.30162608" lon="7.41476767"><ele></ele><time>2014-5-15T5:3:40Z</time></trkpt>
<trkpt lat="46.30184552" lon="7.41498861"><ele></ele><time>2014-5-15T5:3:43Z</time></trkpt>
<trkpt lat="46.30240937" lon="7.41559681"><ele></ele><time>2014-5-15T5:3:46Z</time></trkpt>
<trkpt lat="46.30270449" lon="7.41610324"><ele></ele><time>2014-5-15T5:3:49Z</time></trkpt>
<trkpt lat="46.30247592" lon="7.41504595"><ele></ele><time>2014-5-15T5:3:52Z</time></trkpt>
<trkpt lat="46.30242630" lon="7.41479214"><ele></ele><time>2014-5-15T5:3:55Z</time></trkpt>
<trkpt lat="46.30226051" lon="7.41445553"><ele></ele><time>2014-5-15T5:3:58Z</time></trkpt>
<trkpt lat="46.30175130" lon="7.41368003"><ele></ele><time>2014-5-15T5:4:1Z</time></trkpt>
<trkpt lat="46.30144830" lon="7.41333109"><ele></ele><time>2014-5-15T5:4:4Z</time></trkpt>
<trkpt lat="46.30139809" lon="7.41309707"><ele></ele><time>2014-5-15T5:4:7Z</time></trkpt>
<trkpt lat="46.30135216" lon="7.41261955"><ele></ele><time>2014-5-15T5:4:10Z</time></trkpt>
<trkpt lat="46.30134218" lon="7.41253356"><ele></ele><time>2014-5-15T5:4:13Z</time></trkpt>
<trkpt lat="46.30152239" lon="7.41234873"><ele></ele><time>2014-5-15T5:4:16Z</time></trkpt>
<trkpt lat="46.30180721" lon="7.41235569"><ele></ele><time>2014-5-15T5:4:19Z</time></trkpt>
<trkpt lat="46.30192498" lon="7.41229978"><ele></ele><time>2014-5-15T5:4:22Z</time></trkpt>
<trkpt lat="46.30182465" lon="7.41192981"><ele></ele><time>2014-5-15T5:4:25Z</time></trkpt>
<trkpt lat="46.30173286" lon="7.41165773"><ele></ele><time>2014-5-15T5:4:28Z</time></trkpt>
<trkpt lat="46.30164385" lon="7.41151138"><ele></ele><time>2014-5-15T5:4:31Z</time></trkpt>
<trkpt lat="46.30159046" lon="7.41141072"><ele></ele><time>2014-5-15T5:4:34Z</time></trkpt>
<trkpt lat="46.30154419" lon="7.41126562"><ele></ele><time>2014-5-15T5:4:37Z</time></trkpt>
<trkpt lat="46.30137705" lon="7.41103546"><ele></ele><time>2014-5-15T5:4:40Z</time></trkpt>
<trkpt lat="46.30128426" lon="7.41084033"><ele></ele><time>2014-5-15T5:4:43Z</time></trkpt>
<trkpt lat="46.30118955" lon="7.41057370"><ele></ele><time>2014-5-15T5:4:46Z</time></trkpt>
<trkpt lat="46.30119391" lon="7.41024924"><ele></ele><time>2014-5-15T5:4:49Z</time></trkpt>
<trkpt lat="46.30119399" lon="7.40994422"><ele></ele><time>2014-5-15T5:4:52Z</time></trkpt>
<trkpt lat="46.30083868" lon="7.40925120"><ele></ele><time>2014-5-15T5:4:55Z</time></trkpt>
<trkpt lat="46.30065713" lon="7.40912522"><ele></ele><time>2014-5-15T5:4:58Z</time></trkpt>
<trkpt lat="46.30048664" lon="7.40907887"><ele></ele><time>2014-5-15T5:5:1Z</time></trkpt>
<trkpt lat="46.30029671" lon="7.40898265"><ele></ele><time>2014-5-15T5:5:4Z</time></trkpt>
<trkpt lat="46.30022194" lon="7.40889254"><ele></ele><time>2014-5-15T5:5:7Z</time></trkpt>
<trkpt lat="46.30013435" lon="7.40855366"><ele></ele><time>2014-5-15T5:5:10Z</time></trkpt>
<trkpt lat="46.30004081" lon="7.40824663"><ele></ele><time>2014-5-15T5:5:13Z</time></trkpt>
<trkpt lat="46.29992514" lon="7.40803314"><ele></ele><time>2014-5-15T5:5:16Z</time></trkpt>
<trkpt lat="46.29984987" lon="7.40776995"><ele></ele><time>2014-5-15T5:5:19Z</time></trkpt>
<trkpt lat="46.29982363" lon="7.40745496"><ele></ele><time>2014-5-15T5:5:22Z</time></trkpt>
<trkpt lat="46.29980578" lon="7.40715413"><ele></ele><time>2014-5-15T5:5:25Z</time></trkpt>
<trkpt lat="46.29975080" lon="7.40687862"><ele></ele><time>2014-5-15T5:5:28Z</time></trkpt>
<trkpt lat="46.29966035" lon="7.40667234"><ele></ele><time>2014-5-15T5:5:31Z</time></trkpt>
<trkpt lat="46.29958701" lon="7.40644419"><ele></ele><time>2014-5-15T5:5:34Z</time></trkpt>
<trkpt lat="46.29948031" lon="7.40617747"><ele></ele><time>2014-5-15T5:5:37Z</time></trkpt>
<trkpt lat="46.29933304" lon="7.40600196"><ele></ele><time>2014-5-15T5:5:40Z</time></trkpt>
<trkpt lat="46.29904605" lon="7.40584052"><ele></ele><time>2014-5-15T5:5:43Z</time></trkpt>
<trkpt lat="46.29891294" lon="7.40576047"><ele></ele><time>2014-5-15T5:5:46Z</time></trkpt>
<trkpt lat="46.29928225" lon="7.40564598"><ele></ele><time>2014-5-15T5:5:49Z</time></trkpt>
<trkpt lat="46.29951761" lon="7.40562201"><ele></ele><time>2014-5-15T5:5:52Z</time></trkpt>
<trkpt lat="46.29959011" lon="7.40545847"><ele></ele><time>2014-5-15T5:5:55Z</time></trkpt>
<trkpt lat="46.29953689" lon="7.40527667"><ele></ele><time>2014-5-15T5:5:58Z</time></trkpt>
<trkpt lat="46.29940865" lon="7.40516888"><ele></ele><time>2014-5-15T5:6:1Z</time></trkpt>
<trkpt lat="46.29932005" lon="7.40513745"><ele></ele><time>2014-5-15T5:6:4Z</time></trkpt>
<trkpt lat="46.29936380" lon="7.40506100"><ele></ele><time>2014-5-15T5:6:7Z</time></trkpt>
<trkpt lat="46.29954075" lon="7.40500401"><ele></ele><time>2014-5-15T5:6:10Z</time></trkpt>
<trkpt lat="46.29964745" lon="7.40490954"><ele></ele><time>2014-5-15T5:6:13Z</time></trkpt>
<trkpt lat="46.29977309" lon="7.40481734"><ele></ele><time>2014-5-15T5:6:16Z</time></trkpt>
<trkpt lat="46.29982045" lon="7.40479739"><ele></ele><time>2014-5-15T5:6:19Z</time></trkpt>
<trkpt lat="46.29998448" lon="7.40487174"><ele></ele><time>2014-5-15T5:6:22Z</time></trkpt>
<trkpt lat="46.30000737" lon="7.40489513"><ele></ele><time>2014-5-15T5:6:25Z</time></trkpt>
<trkpt lat="46.30009906" lon="7.40506142"><ele></ele><time>2014-5-15T5:6:28Z</time></trkpt>
<trkpt lat="46.30012798" lon="7.40526301"><ele></ele><time>2014-5-15T5:6:31Z</time></trkpt>
<trkpt lat="46.30008616" lon="7.40550223"><ele></ele><time>2014-5-15T5:6:34Z</time></trkpt>
<trkpt lat="46.30010694" lon="7.40561555"><ele></ele><time>2014-5-15T5:6:37Z</time></trkpt>
<trkpt lat="46.30029839" lon="7.40574681"><ele></ele><time>2014-5-15T5:6:40Z</time></trkpt>
<trkpt lat="46.30047298" lon="7.40584572"><ele></ele><time>2014-5-15T5:6:43Z</time></trkpt>
<trkpt lat="46.30068940" lon="7.40589676"><ele></ele><time>2014-5-15T5:6:46Z</time></trkpt>
<trkpt lat="46.30088386" lon="7.40604730"><ele></ele><time>2014-5-15T5:6:49Z</time></trkpt>
<trkpt lat="46.30111378" lon="7.40614244"><ele></ele><time>2014-5-15T5:6:52Z</time></trkpt>
<trkpt lat="46.30129952" lon="7.40628946"><ele></ele><time>2014-5-15T5:6:55Z</time></trkpt>
<trkpt lat="46.30155165" lon="7.40662591"><ele></ele><time>2014-5-15T5:6:58Z</time></trkpt>
<trkpt lat="46.30178047" lon="7.40683017"><ele></ele><time>2014-5-15T5:7:1Z</time></trkpt>
<trkpt lat="46.30186982" lon="7.40701390"><ele></ele><time>2014-5-15T5:7:4Z</time></trkpt>
<trkpt lat="46.30193663" lon="7.40725312"><ele></ele><time>2014-5-15T5:7:7Z</time></trkpt>
<trkpt lat="46.30214048" lon="7.40751497"><ele></ele><time>2014-5-15T5:7:10Z</time></trkpt>
<trkpt lat="46.30237232" lon="7.40812040"><ele></ele><time>2014-5-15T5:7:13Z</time></trkpt>
<trkpt lat="46.30263828" lon="7.40891408"><ele></ele><time>2014-5-15T5:7:16Z</time></trkpt>
<trkpt lat="46.30297573" lon="7.40949595"><ele></ele><time>2014-5-15T5:7:19Z</time></trkpt>
<trkpt lat="46.30313423" lon="7.41002929"><ele></ele><time>2014-5-15T5:7:22Z</time></trkpt>
<trkpt lat="46.30332886" lon="7.41045786"><ele></ele><time>2014-5-15T5:7:25Z</time></trkpt>
<trkpt lat="46.30329282" lon="7.40988119"><ele></ele><time>2014-5-15T5:7:28Z</time></trkpt>
<trkpt lat="46.30335175" lon="7.40987238"><ele></ele><time>2014-5-15T5:7:31Z</time></trkpt>
<trkpt lat="46.30350614" lon="7.40995880"><ele></ele><time>2014-5-15T5:7:34Z</time></trkpt>
<trkpt lat="46.30355777" lon="7.41000339"><ele></ele><time>2014-5-15T5:7:37Z</time></trkpt>
<trkpt lat="46.30361795" lon="7.40995855"><ele></ele><time>2014-5-15T5:7:40Z</time></trkpt>
<trkpt lat="46.30368291" lon="7.40980189"><ele></ele><time>2014-5-15T5:7:43Z</time></trkpt>
<trkpt lat="46.30292234" lon="7.40666740"><ele></ele><time>2014-5-15T5:7:46Z</time></trkpt>
<trkpt lat="46.30292997" lon="7.40632290"><ele></ele><time>2014-5-15T5:7:49Z</time></trkpt>
<trkpt lat="46.30296651" lon="7.40618007"><ele></ele><time>2014-5-15T5:7:52Z</time></trkpt>
<trkpt lat="46.30287607" lon="7.40599508"><ele></ele><time>2014-5-15T5:7:55Z</time></trkpt>
<trkpt lat="46.30270584" lon="7.40583080"><ele></ele><time>2014-5-15T5:7:58Z</time></trkpt>
<trkpt lat="46.30262822" lon="7.40559317"><ele></ele><time>2014-5-15T5:8:1Z</time></trkpt>
<trkpt lat="46.30260768" lon="7.40546124"><ele></ele><time>2014-5-15T5:8:4Z</time></trkpt>
<trkpt lat="46.30241775" lon="7.40518078"><ele></ele><time>2014-5-15T5:8:7Z</time></trkpt>
<trkpt lat="46.30237509" lon="7.40514818"><ele></ele><time>2014-5-15T5:8:10Z</time></trkpt>
<trkpt lat="46.30212489" lon="7.40499135"><ele></ele><time>2014-5-15T5:8:13Z</time></trkpt>
<trkpt lat="46.30182649" lon="7.40472296"><ele></ele><time>2014-5-15T5:8:16Z</time></trkpt>
<trkpt lat="46.30167495" lon="7.40453789"><ele></ele><time>2014-5-15T5:8:19Z</time></trkpt>
<trkpt lat="46.30157478" lon="7.40435433"><ele></ele><time>2014-5-15T5:8:22Z</time></trkpt>
<trkpt lat="46.30131561" lon="7.40364748"><ele></ele><time>2014-5-15T5:8:25Z</time></trkpt>
<trkpt lat="46.30096332" lon="7.40295849"><ele></ele><time>2014-5-15T5:8:28Z</time></trkpt>
<trkpt lat="46.30090423" lon="7.40283695"><ele></ele><time>2014-5-15T5:8:31Z</time></trkpt>
<trkpt lat="46.30062151" lon="7.40244577"><ele></ele><time>2014-5-15T5:8:34Z</time></trkpt>
<trkpt lat="46.30027190" lon="7.40209574"><ele></ele><time>2014-5-15T5:8:37Z</time></trkpt>
<trkpt lat="46.29995925" lon="7.40184923"><ele></ele><time>2014-5-15T5:8:40Z</time></trkpt>
<trkpt lat="46.29971065" lon="7.40183171"><ele></ele><time>2014-5-15T5:8:43Z</time></trkpt>
<trkpt lat="46.29962021" lon="7.40184009"><ele></ele><time>2014-5-15T5:8:46Z</time></trkpt>
<trkpt lat="46.29959942" lon="7.40171998"><ele></ele><time>2014-5-15T5:8:49Z</time></trkpt>
<trkpt lat="46.29971559" lon="7.40146265"><ele></ele><time>2014-5-15T5:8:52Z</time></trkpt>
<trkpt lat="46.29987175" lon="7.40124095"><ele></ele><time>2014-5-15T5:8:55Z</time></trkpt>
<trkpt lat="46.30001206" lon="7.40116904"><ele></ele><time>2014-5-15T5:8:58Z</time></trkpt>
<trkpt lat="46.30016897" lon="7.40118521"><ele></ele><time>2014-5-15T5:9:1Z</time></trkpt>
<trkpt lat="46.30037642" lon="7.40126383"><ele></ele><time>2014-5-15T5:9:4Z</time></trkpt>
<trkpt lat="46.30055152" lon="7.40134858"><ele></ele><time>2014-5-15T5:9:7Z</time></trkpt>
<trkpt lat="46.30081270" lon="7.40142393"><ele></ele><time>2014-5-15T5:9:10Z</time></trkpt>
<trkpt lat="46.30107237" lon="7.40156055"><ele></ele><time>2014-5-15T5:9:13Z</time></trkpt>
<trkpt lat="46.30127278" lon="7.40169601"><ele></ele><time>2014-5-15T5:9:16Z</time></trkpt>
<trkpt lat="46.30152223" lon="7.40194545"><ele></ele><time>2014-5-15T5:9:19Z</time></trkpt>
<trkpt lat="46.30172364" lon="7.40224921"><ele></ele><time>2014-5-15T5:9:22Z</time></trkpt>
<trkpt lat="46.30186505" lon="7.40245147"><ele></ele><time>2014-5-15T5:9:25Z</time></trkpt>
<trkpt lat="46.30195239" lon="7.40260460"><ele></ele><time>2014-5-15T5:9:28Z</time></trkpt>
<trkpt lat="46.30204601" lon="7.40275565"><ele></ele><time>2014-5-15T5:9:31Z</time></trkpt>
<trkpt lat="46.30218289" lon="7.40292094"><ele></ele><time>2014-5-15T5:9:34Z</time></trkpt>
<trkpt lat="46.30228473" lon="7.40303493"><ele></ele><time>2014-5-15T5:9:37Z</time></trkpt>
<trkpt lat="46.30245337" lon="7.40328521"><ele></ele><time>2014-5-15T5:9:40Z</time></trkpt>
<trkpt lat="46.30256745" lon="7.40342444"><ele></ele><time>2014-5-15T5:9:43Z</time></trkpt>
<trkpt lat="46.30268455" lon="7.40353776"><ele></ele><time>2014-5-15T5:9:46Z</time></trkpt>
<trkpt lat="46.30275059" lon="7.40359233"><ele></ele><time>2014-5-15T5:9:49Z</time></trkpt>
<trkpt lat="46.30301739" lon="7.40399810"><ele></ele><time>2014-5-15T5:9:52Z</time></trkpt>
<trkpt lat="46.30329383" lon="7.40409952"><ele></ele><time>2014-5-15T5:9:55Z</time></trkpt>
<trkpt lat="46.30338712" lon="7.40428451"><ele></ele><time>2014-5-15T5:9:58Z</time></trkpt>
<trkpt lat="46.30331947" lon="7.40460436"><ele></ele><time>2014-5-15T5:10:1Z</time></trkpt>
<trkpt lat="46.30336658" lon="7.40518036"><ele></ele><time>2014-5-15T5:10:4Z</time></trkpt>
<trkpt lat="46.30370538" lon="7.40555403"><ele></ele><time>2014-5-15T5:10:7Z</time></trkpt>
<trkpt lat="46.30375047" lon="7.40559921"><ele></ele><time>2014-5-15T5:10:10Z</time></trkpt>
<trkpt lat="46.30370303" lon="7.40656790"><ele></ele><time>2014-5-15T5:10:13Z</time></trkpt>
<trkpt lat="46.30432849" lon="7.40818276"><ele></ele><time>2014-5-15T5:10:16Z</time></trkpt>
<trkpt lat="46.30423109" lon="7.40830187"><ele></ele><time>2014-5-15T5:10:19Z</time></trkpt>
<trkpt lat="46.30416420" lon="7.40834881"><ele></ele><time>2014-5-15T5:10:22Z</time></trkpt>
<trkpt lat="46.30419966" lon="7.40838870"><ele></ele><time>2014-5-15T5:10:25Z</time></trkpt>
<trkpt lat="46.30431424" lon="7.40865491"><ele></ele><time>2014-5-15T5:10:28Z</time></trkpt>
<trkpt lat="46.30435816" lon="7.40871099"><ele></ele><time>2014-5-15T5:10:31Z</time></trkpt>
<trkpt lat="46.30478346" lon="7.40926797"><ele></ele><time>2014-5-15T5:10:34Z</time></trkpt>
<trkpt lat="46.30503047" lon="7.40949788"><ele></ele><time>2014-5-15T5:10:37Z</time></trkpt>
<trkpt lat="46.30513977" lon="7.40962403"><ele></ele><time>2014-5-15T5:10:40Z</time></trkpt>
<trkpt lat="46.30611216" lon="7.41184414"><ele></ele><time>2014-5-15T5:10:43Z</time></trkpt>
<trkpt lat="46.30589431" lon="7.41167055"><ele></ele><time>2014-5-15T5:10:46Z</time></trkpt>
<trkpt lat="46.30547153" lon="7.41137300"><ele></ele><time>2014-5-15T5:10:49Z</time></trkpt>
<trkpt lat="46.30482143" lon="7.41093161"><ele></ele><time>2014-5-15T5:10:52Z</time></trkpt>
<trkpt lat="46.30493123" lon="7.41135975"><ele></ele><time>2014-5-15T5:10:55Z</time></trkpt>
<trkpt lat="46.30495395" lon="7.41145330"><ele></ele><time>2014-5-15T5:10:58Z</time></trkpt>
<trkpt lat="46.30443997" lon="7.41123294"><ele></ele><time>2014-5-15T5:11:1Z</time></trkpt>
<trkpt lat="46.30420779" lon="7.41074352"><ele></ele><time>2014-5-15T5:11:4Z</time></trkpt>
<trkpt lat="46.30427493" lon="7.41176669"><ele></ele><time>2014-5-15T5:11:7Z</time></trkpt>
<trkpt lat="46.30428884" lon="7.41189100"><ele></ele><time>2014-5-15T5:11:10Z</time></trkpt>
<trkpt lat="46.30479318" lon="7.41306748"><ele></ele><time>2014-5-15T5:11:13Z</time></trkpt>
<trkpt lat="46.30487373" lon="7.41313479"><ele></ele><time>2014-5-15T5:11:16Z</time></trkpt>
<trkpt lat="46.30512083" lon="7.41350837"><ele></ele><time>2014-5-15T5:11:19Z</time></trkpt>
<trkpt lat="46.30564009" lon="7.41477756"><ele></ele><time>2014-5-15T5:11:22Z</time></trkpt>
<trkpt lat="46.30594142" lon="7.41522440"><ele></ele><time>2014-5-15T5:11:25Z</time></trkpt>
<trkpt lat="46.30608668" lon="7.41534929"><ele></ele><time>2014-5-15T5:11:28Z</time></trkpt>
<trkpt lat="46.30614409" lon="7.41550310"><ele></ele><time>2014-5-15T5:11:31Z</time></trkpt>
<trkpt lat="46.30623185" lon="7.41590853"><ele></ele><time>2014-5-15T5:11:34Z</time></trkpt>
<trkpt lat="46.30636060" lon="7.41641002"><ele></ele><time>2014-5-15T5:11:37Z</time></trkpt>
<trkpt lat="46.30637334" lon="7.41651161"><ele></ele><time>2014-5-15T5:11:40Z</time></trkpt>
<trkpt lat="46.30644819" lon="7.41731468"><ele></ele><time>2014-5-15T5:11:43Z</time></trkpt>
<trkpt lat="46.30698622" lon="7.41860298"><ele></ele><time>2014-5-15T5:11:46Z</time></trkpt>
<trkpt lat="46.30731890" lon="7.41937352"><ele></ele><time>2014-5-15T5:11:49Z</time></trkpt>
<trkpt lat="46.30743574" lon="7.41966203"><ele></ele><time>2014-5-15T5:11:52Z</time></trkpt>
<trkpt lat="46.30741890" lon="7.42008314"><ele></ele><time>2014-5-15T5:11:55Z</time></trkpt>
<trkpt lat="46.30743977" lon="7.42075796"><ele></ele><time>2014-5-15T5:11:58Z</time></trkpt>
<trkpt lat="46.30747665" lon="7.42108804"><ele></ele><time>2014-5-15T5:12:1Z</time></trkpt>
<trkpt lat="46.30772911" lon="7.42143463"><ele></ele><time>2014-5-15T5:12:4Z</time></trkpt>
<trkpt lat="46.30657241" lon="7.42047390"><ele></ele><time>2014-5-15T5:12:7Z</time></trkpt>
<trkpt lat="46.30579465" lon="7.41951752"><ele></ele><time>2014-5-15T5:12:10Z</time></trkpt>
<trkpt lat="46.30536189" lon="7.41890606"><ele></ele><time>2014-5-15T5:12:13Z</time></trkpt>
<trkpt lat="46.30522032" lon="7.41885971"><ele></ele><time>2014-5-15T5:12:16Z</time></trkpt>
<trkpt lat="46.30534027" lon="7.41907882"><ele></ele><time>2014-5-15T5:12:19Z</time></trkpt>
<trkpt lat="46.30550782" lon="7.41944971"><ele></ele><time>2014-5-15T5:12:22Z</time></trkpt>
<trkpt lat="46.30550874" lon="7.41978348"><ele></ele><time>2014-5-15T5:12:25Z</time></trkpt>
<trkpt lat="46.30552123" lon="7.42018816"><ele></ele><time>2014-5-15T5:12:28Z</time></trkpt>
<trkpt lat="46.30554764" lon="7.42029210"><ele></ele><time>2014-5-15T5:12:31Z</time></trkpt>
<trkpt lat="46.30567554" lon="7.42075562"><ele></ele><time>2014-5-15T5:12:34Z</time></trkpt>
<trkpt lat="46.30568384" lon="7.42081102"><ele></ele><time>2014-5-15T5:12:37Z</time></trkpt>
<trkpt lat="46.30505151" lon="7.42096743"><ele></ele><time>2014-5-15T5:12:40Z</time></trkpt>
<trkpt lat="46.30359373" lon="7.41949313"><ele></ele><time>2014-5-15T5:12:43Z</time></trkpt>
<trkpt lat="46.30318888" lon="7.41894932"><ele></ele><time>2014-5-15T5:12:46Z</time></trkpt>
<trkpt lat="46.30324781" lon="7.41875594"><ele></ele><time>2014-5-15T5:12:49Z</time></trkpt>
<trkpt lat="46.30325058" lon="7.41831003"><ele></ele><time>2014-5-15T5:12:52Z</time></trkpt>
<trkpt lat="46.30319559" lon="7.41830139"><ele></ele><time>2014-5-15T5:12:55Z</time></trkpt>
<trkpt lat="46.30299216" lon="7.41822621"><ele></ele><time>2014-5-15T5:12:58Z</time></trkpt>
<trkpt lat="46.30223989" lon="7.41766697"><ele></ele><time>2014-5-15T5:13:1Z</time></trkpt>
<trkpt lat="46.30216638" lon="7.41760653"><ele></ele><time>2014-5-15T5:13:4Z</time></trkpt>
<trkpt lat="46.30148250" lon="7.41667774"><ele></ele><time>2014-5-15T5:13:7Z</time></trkpt>
<trkpt lat="46.30124001" lon="7.41656290"><ele></ele><time>2014-5-15T5:13:10Z</time></trkpt>
<trkpt lat="46.30082561" lon="7.41610886"><ele></ele><time>2014-5-15T5:13:13Z</time></trkpt>
<trkpt lat="46.30074196" lon="7.41605856"><ele></ele><time>2014-5-15T5:13:16Z</time></trkpt>
<trkpt lat="46.30059234" lon="7.41601431"><ele></ele><time>2014-5-15T5:13:19Z</time></trkpt>
<trkpt lat="46.30040308" lon="7.41559572"><ele></ele><time>2014-5-15T5:13:22Z</time></trkpt>
<trkpt lat="46.30027617" lon="7.41536278"><ele></ele><time>2014-5-15T5:13:25Z</time></trkpt>
<trkpt lat="46.30013519" lon="7.41529355"><ele></ele><time>2014-5-15T5:13:28Z</time></trkpt>
<trkpt lat="46.29989631" lon="7.41522817"><ele></ele><time>2014-5-15T5:13:31Z</time></trkpt>
<trkpt lat="46.29972230" lon="7.41530453"><ele></ele><time>2014-5-15T5:13:34Z</time></trkpt>
<trkpt lat="46.29938300" lon="7.41593108"><ele></ele><time>2014-5-15T5:13:37Z</time></trkpt>
<trkpt lat="46.29944058" lon="7.41621355"><ele></ele><time>2014-5-15T5:13:40Z</time></trkpt>
<trkpt lat="46.30016159" lon="7.41801389"><ele></ele><time>2014-5-15T5:13:43Z</time></trkpt>
<trkpt lat="46.30003477" lon="7.41829209"><ele></ele><time>2014-5-15T5:13:46Z</time></trkpt>
<trkpt lat="46.29935961" lon="7.41784978"><ele></ele><time>2014-5-15T5:13:49Z</time></trkpt>
<trkpt lat="46.29946866" lon="7.41801591"><ele></ele><time>2014-5-15T5:13:52Z</time></trkpt>
<trkpt lat="46.29974585" lon="7.41845394"><ele></ele><time>2014-5-15T5:13:55Z</time></trkpt>
<trkpt lat="46.29987837" lon="7.41863717"><ele></ele><time>2014-5-15T5:13:58Z</time></trkpt>
<trkpt lat="46.29993419" lon="7.41898804"><ele></ele><time>2014-5-15T5:14:1Z</time></trkpt>
<trkpt lat="46.29989270" lon="7.41916666"><ele></ele><time>2014-5-15T5:14:4Z</time></trkpt>
<trkpt lat="46.29777786" lon="7.41804617"><ele></ele><time>2014-5-15T5:14:7Z</time></trkpt>
<trkpt lat="46.29770519" lon="7.41784031"><ele></ele><time>2014-5-15T5:14:10Z</time></trkpt>
<trkpt lat="46.29767384" lon="7.41777007"><ele></ele><time>2014-5-15T5:14:13Z</time></trkpt>
<trkpt lat="46.29770268" lon="7.41753303"><ele></ele><time>2014-5-15T5:14:16Z</time></trkpt>
<trkpt lat="46.29762640" lon="7.41684026"><ele></ele><time>2014-5-15T5:14:19Z</time></trkpt>
<trkpt lat="46.29747896" lon="7.41652678"><ele></ele><time>2014-5-15T5:14:22Z</time></trkpt>
<trkpt lat="46.29747058" lon="7.41653332"><ele></ele><time>2014-5-15T5:14:25Z</time></trkpt>
<trkpt lat="46.29473104" lon="7.42000887"><ele></ele><time>2014-5-15T5:14:28Z</time></trkpt>
<trkpt lat="46.29455066" lon="7.41993285"><ele></ele><time>2014-5-15T5:14:31Z</time></trkpt>
<trkpt lat="46.29439719" lon="7.41981735"><ele></ele><time>2014-5-15T5:14:34Z</time></trkpt>
<trkpt lat="46.29324895" lon="7.41889366"><ele></ele><time>2014-5-15T5:14:37Z</time></trkpt>
<trkpt lat="46.29201078" lon="7.41808263"><ele></ele><time>2014-5-15T5:14:40Z</time></trkpt>
<trkpt lat="46.29122472" lon="7.41834288"><ele></ele><time>2014-5-15T5:14:43Z</time></trkpt>
<trkpt lat="46.29073463" lon="7.41790535"><ele></ele><time>2014-5-15T5:14:46Z</time></trkpt>
<trkpt lat="46.29064579" lon="7.41777794"><ele></ele><time>2014-5-15T5:14:49Z</time></trkpt>
<trkpt lat="46.29049642" lon="7.41740168"><ele></ele><time>2014-5-15T5:14:52Z</time></trkpt>
<trkpt lat="46.28966401" lon="7.41627951"><ele></ele><time>2014-5-15T5:14:55Z</time></trkpt>
<trkpt lat="46.28953191" lon="7.41549991"><ele></ele><time>2014-5-15T5:14:58Z</time></trkpt>
<trkpt lat="46.28871979" lon="7.41298584"><ele></ele><time>2014-5-15T5:15:1Z</time></trkpt>
<trkpt lat="46.28880478" lon="7.41361499"><ele></ele><time>2014-5-15T5:15:4Z</time></trkpt>
<trkpt lat="46.28872214" lon="7.41359705"><ele></ele><time>2014-5-15T5:15:7Z</time></trkpt>
<trkpt lat="46.28844931" lon="7.41276188"><ele></ele><time>2014-5-15T5:15:10Z</time></trkpt>
<trkpt lat="46.28822937" lon="7.41268200"><ele></ele><time>2014-5-15T5:15:13Z</time></trkpt>
<trkpt lat="46.28796609" lon="7.41280831"><ele></ele><time>2014-5-15T5:15:16Z</time></trkpt>
<trkpt lat="46.28759796" lon="7.41326286"><ele></ele><time>2014-5-15T5:15:19Z</time></trkpt>
<trkpt lat="46.28754725" lon="7.41330025"><ele></ele><time>2014-5-15T5:15:22Z</time></trkpt>
<trkpt lat="46.28727517" lon="7.41360610"><ele></ele><time>2014-5-15T5:15:25Z</time></trkpt>
<trkpt lat="46.28710267" lon="7.41366930"><ele></ele><time>2014-5-15T5:15:28Z</time></trkpt>
<trkpt lat="46.28645190" lon="7.41340376"><ele></ele><time>2014-5-15T5:15:31Z</time></trkpt>
<trkpt lat="46.28615719" lon="7.41316069"><ele></ele><time>2014-5-15T5:15:34Z</time></trkpt>
<trkpt lat="46.28575235" lon="7.41297008"><ele></ele><time>2014-5-15T5:15:37Z</time></trkpt>
<trkpt lat="46.28546124" lon="7.41265660"><ele></ele><time>2014-5-15T5:15:40Z</time></trkpt>
<trkpt lat="46.28518674" lon="7.41216525"><ele></ele><time>2014-5-15T5:15:43Z</time></trkpt>
<trkpt lat="46.28507484" lon="7.41168413"><ele></ele><time>2014-5-15T5:15:46Z</time></trkpt>
<trkpt lat="46.28490200" lon="7.41105339"><ele></ele><time>2014-5-15T5:15:49Z</time></trkpt>
<trkpt lat="46.28449137" lon="7.41088928"><ele></ele><time>2014-5-15T5:15:52Z</time></trkpt>
<trkpt lat="46.28427269" lon="7.41146277"><ele></ele><time>2014-5-15T5:15:55Z</time></trkpt>
<trkpt lat="46.28421837" lon="7.41170718"><ele></ele><time>2014-5-15T5:15:58Z</time></trkpt>
<trkpt lat="46.28408577" lon="7.41213810"><ele></ele><time>2014-5-15T5:16:1Z</time></trkpt>
<trkpt lat="46.28386298" lon="7.41257630"><ele></ele><time>2014-5-15T5:16:4Z</time></trkpt>
<trkpt lat="46.28370917" lon="7.41283145"><ele></ele><time>2014-5-15T5:16:7Z</time></trkpt>
<trkpt lat="46.28394194" lon="7.41340125"><ele></ele><time>2014-5-15T5:16:10Z</time></trkpt>
<trkpt lat="46.28404479" lon="7.41357903"><ele></ele><time>2014-5-15T5:16:13Z</time></trkpt>
<trkpt lat="46.28217218" lon="7.41164491"><ele></ele><time>2014-5-15T5:16:16Z</time></trkpt>
<trkpt lat="46.28190128" lon="7.41150560"><ele></ele><time>2014-5-15T5:16:19Z</time></trkpt>
<trkpt lat="46.28127004" lon="7.41159763"><ele></ele><time>2014-5-15T5:16:22Z</time></trkpt>
<trkpt lat="46.28101070" lon="7.41169017"><ele></ele><time>2014-5-15T5:16:25Z</time></trkpt>
<trkpt lat="46.28061357" lon="7.41190525"><ele></ele><time>2014-5-15T5:16:28Z</time></trkpt>
<trkpt lat="46.28006238" lon="7.41185395"><ele></ele><time>2014-5-15T5:16:31Z</time></trkpt>
<trkpt lat="46.27993765" lon="7.41174348"><ele></ele><time>2014-5-15T5:16:34Z</time></trkpt>
<trkpt lat="46.27892403" lon="7.41080135"><ele></ele><time>2014-5-15T5:16:37Z</time></trkpt>
<trkpt lat="46.27830469" lon="7.41012367"><ele></ele><time>2014-5-15T5:16:40Z</time></trkpt>
<trkpt lat="46.27806740" lon="7.40986300"><ele></ele><time>2014-5-15T5:16:43Z</time></trkpt>
<trkpt lat="46.27773271" lon="7.40927517"><ele></ele><time>2014-5-15T5:16:46Z</time></trkpt>
<trkpt lat="46.27721655" lon="7.40817329"><ele></ele><time>2014-5-15T5:16:49Z</time></trkpt>
<trkpt lat="46.27699267" lon="7.40767356"><ele></ele><time>2014-5-15T5:16:52Z</time></trkpt>
<trkpt lat="46.27684465" lon="7.40696043"><ele></ele><time>2014-5-15T5:16:55Z</time></trkpt>
<trkpt lat="46.27664952" lon="7.40602191"><ele></ele><time>2014-5-15T5:16:58Z</time></trkpt>
<trkpt lat="46.27659554" lon="7.40581278"><ele></ele><time>2014-5-15T5:17:1Z</time></trkpt>
<trkpt lat="46.27631315" lon="7.40528338"><ele></ele><time>2014-5-15T5:17:4Z</time></trkpt>
<trkpt lat="46.27618709" lon="7.40502714"><ele></ele><time>2014-5-15T5:17:7Z</time></trkpt>
<trkpt lat="46.27614199" lon="7.40462422"><ele></ele><time>2014-5-15T5:17:10Z</time></trkpt>
<trkpt lat="46.27621768" lon="7.40454652"><ele></ele><time>2014-5-15T5:17:13Z</time></trkpt>
<trkpt lat="46.27574796" lon="7.40376910"><ele></ele><time>2014-5-15T5:17:16Z</time></trkpt>
<trkpt lat="46.27538159" lon="7.40335126"><ele></ele><time>2014-5-15T5:17:19Z</time></trkpt>
<trkpt lat="46.27480307" lon="7.40282438"><ele></ele><time>2014-5-15T5:17:22Z</time></trkpt>
<trkpt lat="46.27407040" lon="7.40219481"><ele></ele><time>2014-5-15T5:17:25Z</time></trkpt>
<trkpt lat="46.27395096" lon="7.40211108"><ele></ele><time>2014-5-15T5:17:28Z</time></trkpt>
<trkpt lat="46.27341083" lon="7.40206179"><ele></ele><time>2014-5-15T5:17:31Z</time></trkpt>
<trkpt lat="46.27327823" lon="7.40212172"><ele></ele><time>2014-5-15T5:17:34Z</time></trkpt>
<trkpt lat="46.27256887" lon="7.40217260"><ele></ele><time>2014-5-15T5:17:37Z</time></trkpt>
<trkpt lat="46.27182548" lon="7.40207143"><ele></ele><time>2014-5-15T5:17:40Z</time></trkpt>
<trkpt lat="46.27139641" lon="7.40224871"><ele></ele><time>2014-5-15T5:17:43Z</time></trkpt>
<trkpt lat="46.27081144" lon="7.40215567"><ele></ele><time>2014-5-15T5:17:46Z</time></trkpt>
<trkpt lat="46.27061262" lon="7.40183112"><ele></ele><time>2014-5-15T5:17:49Z</time></trkpt>
<trkpt lat="46.27052964" lon="7.40165259"><ele></ele><time>2014-5-15T5:17:52Z</time></trkpt>
<trkpt lat="46.26994835" lon="7.40022942"><ele></ele><time>2014-5-15T5:17:55Z</time></trkpt>
<trkpt lat="46.26989077" lon="7.40007654"><ele></ele><time>2014-5-15T5:17:58Z</time></trkpt>
<trkpt lat="46.26959279" lon="7.39984796"><ele></ele><time>2014-5-15T5:18:1Z</time></trkpt>
<trkpt lat="46.26937671" lon="7.39995827"><ele></ele><time>2014-5-15T5:18:4Z</time></trkpt>
<trkpt lat="46.26927445" lon="7.40005081"><ele></ele><time>2014-5-15T5:18:7Z</time></trkpt>
<trkpt lat="46.26895568" lon="7.40035540"><ele></ele><time>2014-5-15T5:18:10Z</time></trkpt>
<trkpt lat="46.26859115" lon="7.40046470"><ele></ele><time>2014-5-15T5:18:13Z</time></trkpt>
<trkpt lat="46.26835923" lon="7.40030956"><ele></ele><time>2014-5-15T5:18:16Z</time></trkpt>
<trkpt lat="46.26813811" lon="7.39984813"><ele></ele><time>2014-5-15T5:18:19Z</time></trkpt>
<trkpt lat="46.26804348" lon="7.39969977"><ele></ele><time>2014-5-15T5:18:22Z</time></trkpt>
<trkpt lat="46.26706255" lon="7.39826404"><ele></ele><time>2014-5-15T5:18:25Z</time></trkpt>
<trkpt lat="46.26647422" lon="7.39723683"><ele></ele><time>2014-5-15T5:18:28Z</time></trkpt>
<trkpt lat="46.26603803" lon="7.39689485"><ele></ele><time>2014-5-15T5:18:31Z</time></trkpt>
<trkpt lat="46.26579663" lon="7.39646536"><ele></ele><time>2014-5-15T5:18:34Z</time></trkpt>
<trkpt lat="46.26525130" lon="7.39570026"><ele></ele><time>2014-5-15T5:18:37Z</time></trkpt>
<trkpt lat="46.26477077" lon="7.39512309"><ele></ele><time>2014-5-15T5:18:40Z</time></trkpt>
<trkpt lat="46.26409125" lon="7.39465328"><ele></ele><time>2014-5-15T5:18:43Z</time></trkpt>
<trkpt lat="46.26372127" lon="7.39414802"><ele></ele><time>2014-5-15T5:18:46Z</time></trkpt>
<trkpt lat="46.26357299" lon="7.39362482"><ele></ele><time>2014-5-15T5:18:49Z</time></trkpt>
<trkpt lat="46.26350284" lon="7.39325937"><ele></ele><time>2014-5-15T5:18:52Z</time></trkpt>
<trkpt lat="46.26315172" lon="7.39247801"><ele></ele><time>2014-5-15T5:18:55Z</time></trkpt>
<trkpt lat="46.26256918" lon="7.39133983"><ele></ele><time>2014-5-15T5:18:58Z</time></trkpt>
<trkpt lat="46.26250799" lon="7.39118971"><ele></ele><time>2014-5-15T5:19:1Z</time></trkpt>
<trkpt lat="46.26233851" lon="7.39021179"><ele></ele><time>2014-5-15T5:19:4Z</time></trkpt>
<trkpt lat="46.26210775" lon="7.38948651"><ele></ele><time>2014-5-15T5:19:7Z</time></trkpt>
<trkpt lat="46.26191036" lon="7.38866064"><ele></ele><time>2014-5-15T5:19:10Z</time></trkpt>
<trkpt lat="46.26188597" lon="7.38852896"><ele></ele><time>2014-5-15T5:19:13Z</time></trkpt>
<trkpt lat="46.26188664" lon="7.38812814"><ele></ele><time>2014-5-15T5:19:16Z</time></trkpt>
<trkpt lat="46.26180835" lon="7.38741240"><ele></ele><time>2014-5-15T5:19:19Z</time></trkpt>
<trkpt lat="46.26180156" lon="7.38722130"><ele></ele><time>2014-5-15T5:19:22Z</time></trkpt>
<trkpt lat="46.26181447" lon="7.38703664"><ele></ele><time>2014-5-15T5:19:25Z</time></trkpt>
<trkpt lat="46.26186577" lon="7.38677496"><ele></ele><time>2014-5-15T5:19:28Z</time></trkpt>
<trkpt lat="46.26209107" lon="7.38606476"><ele></ele><time>2014-5-15T5:19:31Z</time></trkpt>
<trkpt lat="46.26227162" lon="7.38590014"><ele></ele><time>2014-5-15T5:19:34Z</time></trkpt>
<trkpt lat="46.26248192" lon="7.38546026"><ele></ele><time>2014-5-15T5:19:37Z</time></trkpt>
<trkpt lat="46.26262357" lon="7.38501669"><ele></ele><time>2014-5-15T5:19:40Z</time></trkpt>
<trkpt lat="46.26266758" lon="7.38450162"><ele></ele><time>2014-5-15T5:19:43Z</time></trkpt>
<trkpt lat="46.26257597" lon="7.38384188"><ele></ele><time>2014-5-15T5:19:46Z</time></trkpt>
<trkpt lat="46.26222828" lon="7.38269784"><ele></ele><time>2014-5-15T5:19:49Z</time></trkpt>
<trkpt lat="46.26183425" lon="7.38147676"><ele></ele><time>2014-5-15T5:19:52Z</time></trkpt>
<trkpt lat="46.26156863" lon="7.38038762"><ele></ele><time>2014-5-15T5:19:55Z</time></trkpt>
<trkpt lat="46.26155312" lon="7.37949025"><ele></ele><time>2014-5-15T5:19:58Z</time></trkpt>
<trkpt lat="46.26154583" lon="7.37930702"><ele></ele><time>2014-5-15T5:20:1Z</time></trkpt>
<trkpt lat="46.26140501" lon="7.37857394"><ele></ele><time>2014-5-15T5:20:4Z</time></trkpt>
<trkpt lat="46.26127585" lon="7.37800431"><ele></ele><time>2014-5-15T5:20:7Z</time></trkpt>
<trkpt lat="46.26135170" lon="7.37701180"><ele></ele><time>2014-5-15T5:20:10Z</time></trkpt>
<trkpt lat="46.26144106" lon="7.37603582"><ele></ele><time>2014-5-15T5:20:13Z</time></trkpt>
<trkpt lat="46.26145078" lon="7.37546744"><ele></ele><time>2014-5-15T5:20:16Z</time></trkpt>
<trkpt lat="46.26158866" lon="7.37479462"><ele></ele><time>2014-5-15T5:20:19Z</time></trkpt>
<trkpt lat="46.26186652" lon="7.37381889"><ele></ele><time>2014-5-15T5:20:22Z</time></trkpt>
<trkpt lat="46.26197213" lon="7.37302654"><ele></ele><time>2014-5-15T5:20:25Z</time></trkpt>
<trkpt lat="46.26203399" lon="7.37217167"><ele></ele><time>2014-5-15T5:20:28Z</time></trkpt>
<trkpt lat="46.26224899" lon="7.37169055"><ele></ele><time>2014-5-15T5:20:31Z</time></trkpt>
<trkpt lat="46.26249919" lon="7.37157262"><ele></ele><time>2014-5-15T5:20:34Z</time></trkpt>
<trkpt lat="46.26277571" lon="7.37165761"><ele></ele><time>2014-5-15T5:20:37Z</time></trkpt>
<trkpt lat="46.26326613" lon="7.37167655"><ele></ele><time>2014-5-15T5:20:40Z</time></trkpt>
<trkpt lat="46.26336034" lon="7.37160238"><ele></ele><time>2014-5-15T5:20:43Z</time></trkpt>
<trkpt lat="46.26423391" lon="7.37086460"><ele></ele><time>2014-5-15T5:20:46Z</time></trkpt>
<trkpt lat="46.26422603" lon="7.37051767"><ele></ele><time>2014-5-15T5:20:49Z</time></trkpt>
<trkpt lat="46.26407264" lon="7.37044634"><ele></ele><time>2014-5-15T5:20:52Z</time></trkpt>
<trkpt lat="46.26391212" lon="7.37049814"><ele></ele><time>2014-5-15T5:20:55Z</time></trkpt>
<trkpt lat="46.26368288" lon="7.37057568"><ele></ele><time>2014-5-15T5:20:58Z</time></trkpt>
<trkpt lat="46.26317368" lon="7.37056352"><ele></ele><time>2014-5-15T5:21:1Z</time></trkpt>
<trkpt lat="46.26295885" lon="7.37035817"><ele></ele><time>2014-5-15T5:21:4Z</time></trkpt>
<trkpt lat="46.26288509" lon="7.37009430"><ele></ele><time>2014-5-15T5:21:7Z</time></trkpt>
<trkpt lat="46.26284829" lon="7.36981636"><ele></ele><time>2014-5-15T5:21:10Z</time></trkpt>
<trkpt lat="46.26276900" lon="7.36958720"><ele></ele><time>2014-5-15T5:21:13Z</time></trkpt>
<trkpt lat="46.26248511" lon="7.36937891"><ele></ele><time>2014-5-15T5:21:16Z</time></trkpt>
<trkpt lat="46.26234697" lon="7.36940347"><ele></ele><time>2014-5-15T5:21:19Z</time></trkpt>
<trkpt lat="46.26181439" lon="7.36950983"><ele></ele><time>2014-5-15T5:21:22Z</time></trkpt>
<trkpt lat="46.26150090" lon="7.36933323"><ele></ele><time>2014-5-15T5:21:25Z</time></trkpt>
<trkpt lat="46.26107661" lon="7.36887029"><ele></ele><time>2014-5-15T5:21:28Z</time></trkpt>
<trkpt lat="46.26076304" lon="7.36828096"><ele></ele><time>2014-5-15T5:21:31Z</time></trkpt>
<trkpt lat="46.26041410" lon="7.36762248"><ele></ele><time>2014-5-15T5:21:34Z</time></trkpt>
<trkpt lat="46.26006877" lon="7.36716340"><ele></ele><time>2014-5-15T5:21:37Z</time></trkpt>
<trkpt lat="46.25969016" lon="7.36694841"><ele></ele><time>2014-5-15T5:21:40Z</time></trkpt>
<trkpt lat="46.25933619" lon="7.36635723"><ele></ele><time>2014-5-15T5:21:43Z</time></trkpt>
<trkpt lat="46.25889338" lon="7.36573923"><ele></ele><time>2014-5-15T5:21:46Z</time></trkpt>
<trkpt lat="46.25834989" lon="7.36488126"><ele></ele><time>2014-5-15T5:21:49Z</time></trkpt>
<trkpt lat="46.25787858" lon="7.36390787"><ele></ele><time>2014-5-15T5:21:52Z</time></trkpt>
<trkpt lat="46.25752704" lon="7.36322206"><ele></ele><time>2014-5-15T5:21:55Z</time></trkpt>
<trkpt lat="46.25702153" lon="7.36270004"><ele></ele><time>2014-5-15T5:21:58Z</time></trkpt>
<trkpt lat="46.25631217" lon="7.36205673"><ele></ele><time>2014-5-15T5:22:1Z</time></trkpt>
<trkpt lat="46.25590581" lon="7.36178566"><ele></ele><time>2014-5-15T5:22:4Z</time></trkpt>
<trkpt lat="46.25537264" lon="7.36112466"><ele></ele><time>2014-5-15T5:22:7Z</time></trkpt>
<trkpt lat="46.25491298" lon="7.36029837"><ele></ele><time>2014-5-15T5:22:10Z</time></trkpt>
<trkpt lat="46.25481172" lon="7.36008396"><ele></ele><time>2014-5-15T5:22:13Z</time></trkpt>
<trkpt lat="46.25450872" lon="7.35978389"><ele></ele><time>2014-5-15T5:22:16Z</time></trkpt>
<trkpt lat="46.25432960" lon="7.35968683"><ele></ele><time>2014-5-15T5:22:19Z</time></trkpt>
<trkpt lat="46.25400346" lon="7.35936731"><ele></ele><time>2014-5-15T5:22:22Z</time></trkpt>
<trkpt lat="46.25340449" lon="7.35833349"><ele></ele><time>2014-5-15T5:22:25Z</time></trkpt>
<trkpt lat="46.25320223" lon="7.35763066"><ele></ele><time>2014-5-15T5:22:28Z</time></trkpt>
<trkpt lat="46.25294189" lon="7.35652895"><ele></ele><time>2014-5-15T5:22:31Z</time></trkpt>
<trkpt lat="46.25289168" lon="7.35575999"><ele></ele><time>2014-5-15T5:22:34Z</time></trkpt>
<trkpt lat="46.25291976" lon="7.35502037"><ele></ele><time>2014-5-15T5:22:37Z</time></trkpt>
<trkpt lat="46.25283192" lon="7.35451243"><ele></ele><time>2014-5-15T5:22:40Z</time></trkpt>
<trkpt lat="46.25255113" lon="7.35378245"><ele></ele><time>2014-5-15T5:22:43Z</time></trkpt>
<trkpt lat="46.25224208" lon="7.35304601"><ele></ele><time>2014-5-15T5:22:46Z</time></trkpt>
<trkpt lat="46.25191284" lon="7.35206793"><ele></ele><time>2014-5-15T5:22:49Z</time></trkpt>
<trkpt lat="46.25156650" lon="7.35108683"><ele></ele><time>2014-5-15T5:22:52Z</time></trkpt>
<trkpt lat="46.25146433" lon="7.35078609"><ele></ele><time>2014-5-15T5:22:55Z</time></trkpt>
<trkpt lat="46.25143885" lon="7.35022089"><ele></ele><time>2014-5-15T5:22:58Z</time></trkpt>
<trkpt lat="46.25140213" lon="7.34974430"><ele></ele><time>2014-5-15T5:23:1Z</time></trkpt>
<trkpt lat="46.25122134" lon="7.34905271"><ele></ele><time>2014-5-15T5:23:4Z</time></trkpt>
<trkpt lat="46.25107558" lon="7.34891692"><ele></ele><time>2014-5-15T5:23:7Z</time></trkpt>
<trkpt lat="46.25102688" lon="7.34895514"><ele></ele><time>2014-5-15T5:23:10Z</time></trkpt>
<trkpt lat="46.25048842" lon="7.34922932"><ele></ele><time>2014-5-15T5:23:13Z</time></trkpt>
<trkpt lat="46.25018734" lon="7.34918933"><ele></ele><time>2014-5-15T5:23:16Z</time></trkpt>
<trkpt lat="46.25005466" lon="7.34896411"><ele></ele><time>2014-5-15T5:23:19Z</time></trkpt>
<trkpt lat="46.24985551" lon="7.34813137"><ele></ele><time>2014-5-15T5:23:22Z</time></trkpt>
<trkpt lat="46.24966867" lon="7.34786055"><ele></ele><time>2014-5-15T5:23:25Z</time></trkpt>
<trkpt lat="46.24947958" lon="7.34795175"><ele></ele><time>2014-5-15T5:23:28Z</time></trkpt>
<trkpt lat="46.24869612" lon="7.34806767"><ele></ele><time>2014-5-15T5:23:31Z</time></trkpt>
<trkpt lat="46.24823755" lon="7.34801981"><ele></ele><time>2014-5-15T5:23:34Z</time></trkpt>
<trkpt lat="46.24782105" lon="7.34780548"><ele></ele><time>2014-5-15T5:23:37Z</time></trkpt>
<trkpt lat="46.24728603" lon="7.34782292"><ele></ele><time>2014-5-15T5:23:40Z</time></trkpt>
<trkpt lat="46.24718528" lon="7.34787757"><ele></ele><time>2014-5-15T5:23:43Z</time></trkpt>
<trkpt lat="46.24699401" lon="7.34800807"><ele></ele><time>2014-5-15T5:23:46Z</time></trkpt>
<trkpt lat="46.24668061" lon="7.34797915"><ele></ele><time>2014-5-15T5:23:49Z</time></trkpt>
<trkpt lat="46.24622866" lon="7.34733207"><ele></ele><time>2014-5-15T5:23:52Z</time></trkpt>
<trkpt lat="46.24576514" lon="7.34623605"><ele></ele><time>2014-5-15T5:23:55Z</time></trkpt>
<trkpt lat="46.24544671" lon="7.34528823"><ele></ele><time>2014-5-15T5:23:58Z</time></trkpt>
<trkpt lat="46.24535870" lon="7.34502152"><ele></ele><time>2014-5-15T5:24:1Z</time></trkpt>
<trkpt lat="46.24508092" lon="7.34455464"><ele></ele><time>2014-5-15T5:24:4Z</time></trkpt>
<trkpt lat="46.24475973" lon="7.34428047"><ele></ele><time>2014-5-15T5:24:7Z</time></trkpt>
<trkpt lat="46.24450785" lon="7.34378745"><ele></ele><time>2014-5-15T5:24:10Z</time></trkpt>
<trkpt lat="46.24432236" lon="7.34296778"><ele></ele><time>2014-5-15T5:24:13Z</time></trkpt>
<trkpt lat="46.24404760" lon="7.34201149"><ele></ele><time>2014-5-15T5:24:16Z</time></trkpt>
<trkpt lat="46.24383680" lon="7.34133775"><ele></ele><time>2014-5-15T5:24:19Z</time></trkpt>
<trkpt lat="46.24333992" lon="7.34059596"><ele></ele><time>2014-5-15T5:24:22Z</time></trkpt>
<trkpt lat="46.24297463" lon="7.33977470"><ele></ele><time>2014-5-15T5:24:25Z</time></trkpt>
<trkpt lat="46.24261555" lon="7.33898143"><ele></ele><time>2014-5-15T5:24:28Z</time></trkpt>
<trkpt lat="46.24256317" lon="7.33846318"><ele></ele><time>2014-5-15T5:24:31Z</time></trkpt>
<trkpt lat="46.24241573" lon="7.33780738"><ele></ele><time>2014-5-15T5:24:34Z</time></trkpt>
<trkpt lat="46.24189278" lon="7.33669594"><ele></ele><time>2014-5-15T5:24:37Z</time></trkpt>
<trkpt lat="46.24160528" lon="7.33647851"><ele></ele><time>2014-5-15T5:24:40Z</time></trkpt>
<trkpt lat="46.24155315" lon="7.33640945"><ele></ele><time>2014-5-15T5:24:43Z</time></trkpt>
<trkpt lat="46.24116842" lon="7.33561509"><ele></ele><time>2014-5-15T5:24:46Z</time></trkpt>
<trkpt lat="46.24089877" lon="7.33488729"><ele></ele><time>2014-5-15T5:24:49Z</time></trkpt>
<trkpt lat="46.24052276" lon="7.33389479"><ele></ele><time>2014-5-15T5:24:52Z</time></trkpt>
<trkpt lat="46.24022654" lon="7.33291344"><ele></ele><time>2014-5-15T5:24:55Z</time></trkpt>
<trkpt lat="46.24008732" lon="7.33180971"><ele></ele><time>2014-5-15T5:24:58Z</time></trkpt>
<trkpt lat="46.24012621" lon="7.33113513"><ele></ele><time>2014-5-15T5:25:1Z</time></trkpt>
<trkpt lat="46.24015597" lon="7.33077848"><ele></ele><time>2014-5-15T5:25:4Z</time></trkpt>
<trkpt lat="46.23983125" lon="7.32922356"><ele></ele><time>2014-5-15T5:25:7Z</time></trkpt>
<trkpt lat="46.23977786" lon="7.32906229"><ele></ele><time>2014-5-15T5:25:10Z</time></trkpt>
<trkpt lat="46.23934896" lon="7.32809678"><ele></ele><time>2014-5-15T5:25:13Z</time></trkpt>
<trkpt lat="46.23884185" lon="7.32688299"><ele></ele><time>2014-5-15T5:25:16Z</time></trkpt>
<trkpt lat="46.23824758" lon="7.32573501"><ele></ele><time>2014-5-15T5:25:19Z</time></trkpt>
<trkpt lat="46.23799075" lon="7.32530619"><ele></ele><time>2014-5-15T5:25:22Z</time></trkpt>
<trkpt lat="46.23773938" lon="7.32444084"><ele></ele><time>2014-5-15T5:25:25Z</time></trkpt>
<trkpt lat="46.23759974" lon="7.32392427"><ele></ele><time>2014-5-15T5:25:28Z</time></trkpt>
<trkpt lat="46.23722021" lon="7.32343996"><ele></ele><time>2014-5-15T5:25:31Z</time></trkpt>
<trkpt lat="46.23700580" lon="7.32318356"><ele></ele><time>2014-5-15T5:25:34Z</time></trkpt>
<trkpt lat="46.23638512" lon="7.32228778"><ele></ele><time>2014-5-15T5:25:37Z</time></trkpt>
<trkpt lat="46.23590148" lon="7.32134976"><ele></ele><time>2014-5-15T5:25:40Z</time></trkpt>
<trkpt lat="46.23579226" lon="7.32107433"><ele></ele><time>2014-5-15T5:25:43Z</time></trkpt>
<trkpt lat="46.23573937" lon="7.32061819"><ele></ele><time>2014-5-15T5:25:46Z</time></trkpt>
<trkpt lat="46.23575153" lon="7.32051166"><ele></ele><time>2014-5-15T5:25:49Z</time></trkpt>
<trkpt lat="46.23579277" lon="7.32017957"><ele></ele><time>2014-5-15T5:25:52Z</time></trkpt>
<trkpt lat="46.23577793" lon="7.31979970"><ele></ele><time>2014-5-15T5:25:55Z</time></trkpt>
<trkpt lat="46.23576569" lon="7.31821418"><ele></ele><time>2014-5-15T5:25:58Z</time></trkpt>
<trkpt lat="46.23577349" lon="7.31794654"><ele></ele><time>2014-5-15T5:26:1Z</time></trkpt>
<trkpt lat="46.23566100" lon="7.31777648"><ele></ele><time>2014-5-15T5:26:4Z</time></trkpt>
<trkpt lat="46.23562857" lon="7.31770238"><ele></ele><time>2014-5-15T5:26:7Z</time></trkpt>
<trkpt lat="46.23551357" lon="7.31744162"><ele></ele><time>2014-5-15T5:26:10Z</time></trkpt>
<trkpt lat="46.23513361" lon="7.31606078"><ele></ele><time>2014-5-15T5:26:13Z</time></trkpt>
<trkpt lat="46.23488802" lon="7.31594310"><ele></ele><time>2014-5-15T5:26:16Z</time></trkpt>
<trkpt lat="46.23465618" lon="7.31563238"><ele></ele><time>2014-5-15T5:26:19Z</time></trkpt>
<trkpt lat="46.23459038" lon="7.31548587"><ele></ele><time>2014-5-15T5:26:22Z</time></trkpt>
<trkpt lat="46.23446398" lon="7.31518311"><ele></ele><time>2014-5-15T5:26:25Z</time></trkpt>
<trkpt lat="46.23426927" lon="7.31485295"><ele></ele><time>2014-5-15T5:26:28Z</time></trkpt>
<trkpt lat="46.23408789" lon="7.31485094"><ele></ele><time>2014-5-15T5:26:31Z</time></trkpt>
<trkpt lat="46.23403936" lon="7.31492453"><ele></ele><time>2014-5-15T5:26:34Z</time></trkpt>
<trkpt lat="46.23377508" lon="7.31535670"><ele></ele><time>2014-5-15T5:26:37Z</time></trkpt>
<trkpt lat="46.23398546" lon="7.31362634"><ele></ele><time>2014-5-15T5:26:40Z</time></trkpt>
<trkpt lat="46.23381866" lon="7.31352299"><ele></ele><time>2014-5-15T5:26:43Z</time></trkpt>
<trkpt lat="46.23366938" lon="7.31345544"><ele></ele><time>2014-5-15T5:26:46Z</time></trkpt>
<trkpt lat="46.23326110" lon="7.31305176"><ele></ele><time>2014-5-15T5:26:49Z</time></trkpt>
<trkpt lat="46.23280479" lon="7.31258640"><ele></ele><time>2014-5-15T5:26:52Z</time></trkpt>
<trkpt lat="46.23266850" lon="7.31242765"><ele></ele><time>2014-5-15T5:26:55Z</time></trkpt>
<trkpt lat="46.23258057" lon="7.31235246"><ele></ele><time>2014-5-15T5:26:58Z</time></trkpt>
<trkpt lat="46.23225041" lon="7.31242899"><ele></ele><time>2014-5-15T5:27:1Z</time></trkpt>
<trkpt lat="46.23179938" lon="7.31263954"><ele></ele><time>2014-5-15T5:27:4Z</time></trkpt>
<trkpt lat="46.23160047" lon="7.31272772"><ele></ele><time>2014-5-15T5:27:7Z</time></trkpt>
<trkpt lat="46.23071861" lon="7.31282478"><ele></ele><time>2014-5-15T5:27:10Z</time></trkpt>
<trkpt lat="46.22995284" lon="7.31300575"><ele></ele><time>2014-5-15T5:27:13Z</time></trkpt>
<trkpt lat="46.22856203" lon="7.31317280"><ele></ele><time>2014-5-15T5:27:16Z</time></trkpt>
<trkpt lat="46.22738429" lon="7.31331211"><ele></ele><time>2014-5-15T5:27:19Z</time></trkpt>
<trkpt lat="46.22666940" lon="7.31338763"><ele></ele><time>2014-5-15T5:27:22Z</time></trkpt>
<trkpt lat="46.22624821" lon="7.31339525"><ele></ele><time>2014-5-15T5:27:25Z</time></trkpt>
<trkpt lat="46.22588444" lon="7.31349877"><ele></ele><time>2014-5-15T5:27:28Z</time></trkpt>
<trkpt lat="46.22560666" lon="7.31354060"><ele></ele><time>2014-5-15T5:27:31Z</time></trkpt>
<trkpt lat="46.22532285" lon="7.31346893"><ele></ele><time>2014-5-15T5:27:34Z</time></trkpt>
<trkpt lat="46.22513526" lon="7.31334471"><ele></ele><time>2014-5-15T5:27:37Z</time></trkpt>
<trkpt lat="46.22493468" lon="7.31344186"><ele></ele><time>2014-5-15T5:27:40Z</time></trkpt>
<trkpt lat="46.22490325" lon="7.31357387"><ele></ele><time>2014-5-15T5:27:43Z</time></trkpt>
<trkpt lat="46.22482337" lon="7.31360187"><ele></ele><time>2014-5-15T5:27:46Z</time></trkpt>
<trkpt lat="46.22473888" lon="7.31342124"><ele></ele><time>2014-5-15T5:27:49Z</time></trkpt>
<trkpt lat="46.22468448" lon="7.31332485"><ele></ele><time>2014-5-15T5:27:52Z</time></trkpt>
<trkpt lat="46.22446622" lon="7.31310532"><ele></ele><time>2014-5-15T5:27:55Z</time></trkpt>
<trkpt lat="46.22409825" lon="7.31312594"><ele></ele><time>2014-5-15T5:27:58Z</time></trkpt>
<trkpt lat="46.22370355" lon="7.31324304"><ele></ele><time>2014-5-15T5:28:1Z</time></trkpt>
<trkpt lat="46.22307331" lon="7.31321194"><ele></ele><time>2014-5-15T5:28:4Z</time></trkpt>
<trkpt lat="46.22287684" lon="7.31307398"><ele></ele><time>2014-5-15T5:28:7Z</time></trkpt>
<trkpt lat="46.22285354" lon="7.31296686"><ele></ele><time>2014-5-15T5:28:10Z</time></trkpt>
<trkpt lat="46.22277190" lon="7.31186447"><ele></ele><time>2014-5-15T5:28:13Z</time></trkpt>
<trkpt lat="46.22275396" lon="7.31153749"><ele></ele><time>2014-5-15T5:28:16Z</time></trkpt>
<trkpt lat="46.22284977" lon="7.31113994"><ele></ele><time>2014-5-15T5:28:19Z</time></trkpt>
<trkpt lat="46.22289134" lon="7.31105528"><ele></ele><time>2014-5-15T5:28:22Z</time></trkpt>
<trkpt lat="46.22285211" lon="7.31070089"><ele></ele><time>2014-5-15T5:28:25Z</time></trkpt>
<trkpt lat="46.22280157" lon="7.31063677"><ele></ele><time>2014-5-15T5:28:28Z</time></trkpt>
<trkpt lat="46.22219464" lon="7.30983982"><ele></ele><time>2014-5-15T5:28:31Z</time></trkpt>
<trkpt lat="46.22165820" lon="7.30912241"><ele></ele><time>2014-5-15T5:28:34Z</time></trkpt>
<trkpt lat="46.22120298" lon="7.30834843"><ele></ele><time>2014-5-15T5:28:37Z</time></trkpt>
<trkpt lat="46.22089712" lon="7.30762348"><ele></ele><time>2014-5-15T5:28:40Z</time></trkpt>
<trkpt lat="46.22065715" lon="7.30722014"><ele></ele><time>2014-5-15T5:28:43Z</time></trkpt>
<trkpt lat="46.22024476" lon="7.30670155"><ele></ele><time>2014-5-15T5:28:46Z</time></trkpt>
<trkpt lat="46.21902972" lon="7.30565742"><ele></ele><time>2014-5-15T5:28:49Z</time></trkpt>
<trkpt lat="46.21864574" lon="7.30547201"><ele></ele><time>2014-5-15T5:28:52Z</time></trkpt>
<trkpt lat="46.21804643" lon="7.30537444"><ele></ele><time>2014-5-15T5:28:55Z</time></trkpt>
<trkpt lat="46.21746548" lon="7.30532801"><ele></ele><time>2014-5-15T5:28:58Z</time></trkpt>
<trkpt lat="46.21696802" lon="7.30547595"><ele></ele><time>2014-5-15T5:29:1Z</time></trkpt>
<trkpt lat="46.21661874" lon="7.30562816"><ele></ele><time>2014-5-15T5:29:4Z</time></trkpt>
<trkpt lat="46.21637978" lon="7.30577854"><ele></ele><time>2014-5-15T5:29:7Z</time></trkpt>
<trkpt lat="46.21650768" lon="7.30423467"><ele></ele><time>2014-5-15T5:29:10Z</time></trkpt>
<trkpt lat="46.21637835" lon="7.30416309"><ele></ele><time>2014-5-15T5:29:13Z</time></trkpt>
<trkpt lat="46.21632379" lon="7.30418338"><ele></ele><time>2014-5-15T5:29:16Z</time></trkpt>
<trkpt lat="46.21557520" lon="7.30450960"><ele></ele><time>2014-5-15T5:29:19Z</time></trkpt>
<trkpt lat="46.21500766" lon="7.30475536"><ele></ele><time>2014-5-15T5:29:22Z</time></trkpt>
<trkpt lat="46.21457691" lon="7.30495803"><ele></ele><time>2014-5-15T5:29:25Z</time></trkpt>
<trkpt lat="46.21451438" lon="7.30524377"><ele></ele><time>2014-5-15T5:29:28Z</time></trkpt>
<trkpt lat="46.21453249" lon="7.30533069"><ele></ele><time>2014-5-15T5:29:31Z</time></trkpt>
<trkpt lat="46.21474556" lon="7.30632378"><ele></ele><time>2014-5-15T5:29:34Z</time></trkpt>
<trkpt lat="46.21472016" lon="7.30639385"><ele></ele><time>2014-5-15T5:29:37Z</time></trkpt>
<trkpt lat="46.21419319" lon="7.30675394"><ele></ele><time>2014-5-15T5:29:40Z</time></trkpt>
<trkpt lat="46.21377384" lon="7.30698603"><ele></ele><time>2014-5-15T5:29:43Z</time></trkpt>
<trkpt lat="46.21341443" lon="7.30723908"><ele></ele><time>2014-5-15T5:29:46Z</time></trkpt>
<trkpt lat="46.21275863" lon="7.30754200"><ele></ele><time>2014-5-15T5:29:49Z</time></trkpt>
<trkpt lat="46.21244053" lon="7.30763186"><ele></ele><time>2014-5-15T5:29:52Z</time></trkpt>
<trkpt lat="46.21217650" lon="7.30769045"><ele></ele><time>2014-5-15T5:29:55Z</time></trkpt>
<trkpt lat="46.21170284" lon="7.30788499"><ele></ele><time>2014-5-15T5:29:58Z</time></trkpt>
<trkpt lat="46.21101628" lon="7.30818640"><ele></ele><time>2014-5-15T5:30:1Z</time></trkpt>
<trkpt lat="46.21028865" lon="7.30851657"><ele></ele><time>2014-5-15T5:30:4Z</time></trkpt>
<trkpt lat="46.20959991" lon="7.30880625"><ele></ele><time>2014-5-15T5:30:7Z</time></trkpt>
<trkpt lat="46.20902860" lon="7.30875202"><ele></ele><time>2014-5-15T5:30:10Z</time></trkpt>
<trkpt lat="46.20894369" lon="7.30863794"><ele></ele><time>2014-5-15T5:30:13Z</time></trkpt>
<trkpt lat="46.20889633" lon="7.30861329"><ele></ele><time>2014-5-15T5:30:16Z</time></trkpt>
<trkpt lat="46.20875216" lon="7.30853358"><ele></ele><time>2014-5-15T5:30:19Z</time></trkpt>
<trkpt lat="46.20846542" lon="7.30818179"><ele></ele><time>2014-5-15T5:30:22Z</time></trkpt>
<trkpt lat="46.20811304" lon="7.30763555"><ele></ele><time>2014-5-15T5:30:25Z</time></trkpt>
<trkpt lat="46.20757417" lon="7.30675327"><ele></ele><time>2014-5-15T5:30:28Z</time></trkpt>
<trkpt lat="46.20710537" lon="7.30595598"><ele></ele><time>2014-5-15T5:30:31Z</time></trkpt>
<trkpt lat="46.20650925" lon="7.30500438"><ele></ele><time>2014-5-15T5:30:34Z</time></trkpt>
<trkpt lat="46.20602159" lon="7.30425479"><ele></ele><time>2014-5-15T5:30:37Z</time></trkpt>
<trkpt lat="46.20556008" lon="7.30349153"><ele></ele><time>2014-5-15T5:30:40Z</time></trkpt>
<trkpt lat="46.20509882" lon="7.30271193"><ele></ele><time>2014-5-15T5:30:43Z</time></trkpt>
<trkpt lat="46.20462533" lon="7.30185421"><ele></ele><time>2014-5-15T5:30:46Z</time></trkpt>
<trkpt lat="46.20420364" lon="7.30103622"><ele></ele><time>2014-5-15T5:30:49Z</time></trkpt>
<trkpt lat="46.20381782" lon="7.30018680"><ele></ele><time>2014-5-15T5:30:52Z</time></trkpt>
<trkpt lat="46.20331046" lon="7.29904183"><ele></ele><time>2014-5-15T5:30:55Z</time></trkpt>
<trkpt lat="46.20285474" lon="7.29794431"><ele></ele><time>2014-5-15T5:30:58Z</time></trkpt>
<trkpt lat="46.20238828" lon="7.29673320"><ele></ele><time>2014-5-15T5:31:1Z</time></trkpt>
<trkpt lat="46.20202736" lon="7.29566242"><ele></ele><time>2014-5-15T5:31:4Z</time></trkpt>
<trkpt lat="46.20172033" lon="7.29456372"><ele></ele><time>2014-5-15T5:31:7Z</time></trkpt>
<trkpt lat="46.20157264" lon="7.29381278"><ele></ele><time>2014-5-15T5:31:10Z</time></trkpt>
<trkpt lat="46.20135915" lon="7.29249079"><ele></ele><time>2014-5-15T5:31:13Z</time></trkpt>
<trkpt lat="46.20112094" lon="7.29100392"><ele></ele><time>2014-5-15T5:31:16Z</time></trkpt>
<trkpt lat="46.20099219" lon="7.29017043"><ele></ele><time>2014-5-15T5:31:19Z</time></trkpt>
<trkpt lat="46.20092237" lon="7.28974219"><ele></ele><time>2014-5-15T5:31:22Z</time></trkpt>
<trkpt lat="46.20103821" lon="7.28946492"><ele></ele><time>2014-5-15T5:31:25Z</time></trkpt>
<trkpt lat="46.20157247" lon="7.28879470"><ele></ele><time>2014-5-15T5:31:28Z</time></trkpt>
<trkpt lat="46.20195963" lon="7.28829707"><ele></ele><time>2014-5-15T5:31:31Z</time></trkpt>
<trkpt lat="46.20247043" lon="7.28763917"><ele></ele><time>2014-5-15T5:31:34Z</time></trkpt>
<trkpt lat="46.20304903" lon="7.28689277"><ele></ele><time>2014-5-15T5:31:37Z</time></trkpt>
<trkpt lat="46.20356988" lon="7.28620034"><ele></ele><time>2014-5-15T5:31:40Z</time></trkpt>
<trkpt lat="46.20399283" lon="7.28568619"><ele></ele><time>2014-5-15T5:31:43Z</time></trkpt>
<trkpt lat="46.20441352" lon="7.28513567"><ele></ele><time>2014-5-15T5:31:46Z</time></trkpt>
<trkpt lat="46.20481174" lon="7.28461968"><ele></ele><time>2014-5-15T5:31:49Z</time></trkpt>
<trkpt lat="46.20544206" lon="7.28379498"><ele></ele><time>2014-5-15T5:31:52Z</time></trkpt>
<trkpt lat="46.20607582" lon="7.28296878"><ele></ele><time>2014-5-15T5:31:55Z</time></trkpt>
<trkpt lat="46.20660849" lon="7.28226554"><ele></ele><time>2014-5-15T5:31:58Z</time></trkpt>
<trkpt lat="46.20719573" lon="7.28149474"><ele></ele><time>2014-5-15T5:32:1Z</time></trkpt>
<trkpt lat="46.20776586" lon="7.28075143"><ele></ele><time>2014-5-15T5:32:4Z</time></trkpt>
<trkpt lat="46.20831127" lon="7.28003494"><ele></ele><time>2014-5-15T5:32:7Z</time></trkpt>
<trkpt lat="46.20865518" lon="7.27959121"><ele></ele><time>2014-5-15T5:32:10Z</time></trkpt>
<trkpt lat="46.20890505" lon="7.27934889"><ele></ele><time>2014-5-15T5:32:13Z</time></trkpt>
<trkpt lat="46.20934124" lon="7.27892459"><ele></ele><time>2014-5-15T5:32:16Z</time></trkpt>
<trkpt lat="46.21066332" lon="7.27794626"><ele></ele><time>2014-5-15T5:32:19Z</time></trkpt>
<trkpt lat="46.21102827" lon="7.27772598"><ele></ele><time>2014-5-15T5:32:22Z</time></trkpt>
</trkseg></trk></gpx>